<?xml version='1.0' encoding='UTF-8'?><gpx version="1.1" creator="JPX - https://github.com/jenetics/jpx" xmlns="http://www.topografix.com/GPX/1/1"><trk><trkseg><trkpt lat="43.36339245724883" lon="13.54941732205233"><ele>40.99999999999999</ele><time>2026-05-05T15:49:19.999Z</time></trkpt><trkpt lat="43.36346630164583" lon="13.549441003329152"><ele>41.0</ele><time>2026-05-05T15:49:21.999Z</time></trkpt><trkpt lat="43.36352783359309" lon="13.54946767602236"><ele>41.0</ele><time>2026-05-05T15:49:24.999Z</time></trkpt><trkpt lat="43.36359273307069" lon="13.549523507957277"><ele>41.0</ele><time>2026-05-05T15:49:27.999Z</time></trkpt><trkpt lat="43.36360686779058" lon="13.549620313083752"><ele>41.0</ele><time>2026-05-05T15:49:29.999Z</time></trkpt><trkpt lat="43.36363928816163" lon="13.549703769394773"><ele>40.99999999999999</ele><time>2026-05-05T15:49:31.999Z</time></trkpt><trkpt lat="43.363651846720344" lon="13.549802624470416"><ele>41.0</ele><time>2026-05-05T15:49:34.999Z</time></trkpt><trkpt lat="43.363700554858006" lon="13.549874898996778"><ele>40.83333333333333</ele><time>2026-05-05T15:49:36.999Z</time></trkpt><trkpt lat="43.3637845722425" lon="13.549943439521627"><ele>40.666666666666664</ele><time>2026-05-05T15:49:39.999Z</time></trkpt><trkpt lat="43.36386787192876" lon="13.549975545431094"><ele>40.5</ele><time>2026-05-05T15:49:42.999Z</time></trkpt><trkpt lat="43.36395683167541" lon="13.55000526803552"><ele>40.333333333333336</ele><time>2026-05-05T15:49:45.999Z</time></trkpt><trkpt lat="43.36403998555468" lon="13.550072612139235"><ele>40.16666666666667</ele><time>2026-05-05T15:49:48.999Z</time></trkpt><trkpt lat="43.364084089490376" lon="13.55014168787506"><ele>40.0</ele><time>2026-05-05T15:49:51.999Z</time></trkpt><trkpt lat="43.364131253620265" lon="13.550206774971013"><ele>40.0</ele><time>2026-05-05T15:49:53.999Z</time></trkpt><trkpt lat="43.36416376648127" lon="13.550287118653534"><ele>40.0</ele><time>2026-05-05T15:49:55.999Z</time></trkpt><trkpt lat="43.36418582120682" lon="13.550400184046161"><ele>40.0</ele><time>2026-05-05T15:49:58.999Z</time></trkpt><trkpt lat="43.364226721101325" lon="13.55048373105462"><ele>40.0</ele><time>2026-05-05T15:50:01.999Z</time></trkpt><trkpt lat="43.36419636170496" lon="13.550585974716403"><ele>40.0</ele><time>2026-05-05T15:50:04.999Z</time></trkpt><trkpt lat="43.36412854239497" lon="13.550604142295017"><ele>40.0</ele><time>2026-05-05T15:50:06.999Z</time></trkpt><trkpt lat="43.36404298089021" lon="13.550635352846058"><ele>39.833333333333336</ele><time>2026-05-05T15:50:09.999Z</time></trkpt><trkpt lat="43.363954936276244" lon="13.550664187187046"><ele>39.66666666666667</ele><time>2026-05-05T15:50:12.999Z</time></trkpt><trkpt lat="43.363881012207074" lon="13.550725997296048"><ele>39.5</ele><time>2026-05-05T15:50:15.999Z</time></trkpt><trkpt lat="43.36380661194774" lon="13.5507646065597"><ele>39.333333333333336</ele><time>2026-05-05T15:50:18.999Z</time></trkpt><trkpt lat="43.363727904822476" lon="13.550792798158621"><ele>39.166666666666664</ele><time>2026-05-05T15:50:21.999Z</time></trkpt><trkpt lat="43.36365592067895" lon="13.550825739355925"><ele>39.0</ele><time>2026-05-05T15:50:24.999Z</time></trkpt><trkpt lat="43.363582905403874" lon="13.550849991577833"><ele>39.0</ele><time>2026-05-05T15:50:27.999Z</time></trkpt><trkpt lat="43.36349644838168" lon="13.550861655050062"><ele>39.0</ele><time>2026-05-05T15:50:30.999Z</time></trkpt><trkpt lat="43.363423013499215" lon="13.550889785987408"><ele>39.0</ele><time>2026-05-05T15:50:33.999Z</time></trkpt><trkpt lat="43.36334985820506" lon="13.550926670305138"><ele>39.0</ele><time>2026-05-05T15:50:36.999Z</time></trkpt><trkpt lat="43.36327910727548" lon="13.550954645697699"><ele>39.0</ele><time>2026-05-05T15:50:40Z</time></trkpt><trkpt lat="43.36320628442599" lon="13.550969514416922"><ele>39.0</ele><time>2026-05-05T15:50:43Z</time></trkpt><trkpt lat="43.36313389947836" lon="13.55099406401809"><ele>39.0</ele><time>2026-05-05T15:50:46Z</time></trkpt><trkpt lat="43.363061269660356" lon="13.55101426334842"><ele>39.0</ele><time>2026-05-05T15:50:49Z</time></trkpt><trkpt lat="43.3630010780953" lon="13.551040376428018"><ele>39.0</ele><time>2026-05-05T15:50:52Z</time></trkpt><trkpt lat="43.36291984812929" lon="13.551071352306016"><ele>39.0</ele><time>2026-05-05T15:50:55Z</time></trkpt><trkpt lat="43.36284830743496" lon="13.551080562308423"><ele>39.0</ele><time>2026-05-05T15:50:58Z</time></trkpt><trkpt lat="43.36278069610984" lon="13.551122595860793"><ele>39.0</ele><time>2026-05-05T15:51:01Z</time></trkpt><trkpt lat="43.36275536668054" lon="13.551213296162679"><ele>39.0</ele><time>2026-05-05T15:51:03.999Z</time></trkpt><trkpt lat="43.362746139468356" lon="13.551317206417883"><ele>39.142857142857146</ele><time>2026-05-05T15:51:06.999Z</time></trkpt><trkpt lat="43.36274906627623" lon="13.551417168870536"><ele>39.285714285714285</ele><time>2026-05-05T15:51:09.999Z</time></trkpt><trkpt lat="43.36276532274957" lon="13.551511508644637"><ele>39.42857142857143</ele><time>2026-05-05T15:51:12.999Z</time></trkpt><trkpt lat="43.362772790339584" lon="13.551609352374081"><ele>39.57142857142857</ele><time>2026-05-05T15:51:15.999Z</time></trkpt><trkpt lat="43.36278422333726" lon="13.551709159975323"><ele>39.714285714285715</ele><time>2026-05-05T15:51:18.999Z</time></trkpt><trkpt lat="43.362785511523825" lon="13.551810935737986"><ele>39.857142857142854</ele><time>2026-05-05T15:51:21.999Z</time></trkpt><trkpt lat="43.36278614033895" lon="13.551908040899246"><ele>40.0</ele><time>2026-05-05T15:51:24.999Z</time></trkpt><trkpt lat="43.36281266765739" lon="13.5520137077572"><ele>39.66666666666667</ele><time>2026-05-05T15:51:27.999Z</time></trkpt><trkpt lat="43.36281602455574" lon="13.55211128860324"><ele>39.333333333333336</ele><time>2026-05-05T15:51:30.999Z</time></trkpt><trkpt lat="43.362834849828886" lon="13.552215390229374"><ele>39.0</ele><time>2026-05-05T15:51:33.999Z</time></trkpt><trkpt lat="43.362838695181125" lon="13.552312902816999"><ele>38.666666666666664</ele><time>2026-05-05T15:51:36.999Z</time></trkpt><trkpt lat="43.36284786088676" lon="13.5524134264401"><ele>38.33333333333333</ele><time>2026-05-05T15:51:39.999Z</time></trkpt><trkpt lat="43.362851572511374" lon="13.552526825489148"><ele>38.0</ele><time>2026-05-05T15:51:42.999Z</time></trkpt><trkpt lat="43.36283377033392" lon="13.552629904363108"><ele>38.0</ele><time>2026-05-05T15:51:45.999Z</time></trkpt><trkpt lat="43.36283646812817" lon="13.552734533915046"><ele>38.0</ele><time>2026-05-05T15:51:48.999Z</time></trkpt><trkpt lat="43.362837511475846" lon="13.55283667875669"><ele>38.0</ele><time>2026-05-05T15:51:51.999Z</time></trkpt><trkpt lat="43.36283028009459" lon="13.552943017880496"><ele>38.0</ele><time>2026-05-05T15:51:54.999Z</time></trkpt><trkpt lat="43.3628162327015" lon="13.553047374944656"><ele>38.0</ele><time>2026-05-05T15:51:57.999Z</time></trkpt><trkpt lat="43.36281146788667" lon="13.553141372188456"><ele>38.0</ele><time>2026-05-05T15:52:00.999Z</time></trkpt><trkpt lat="43.362804242226474" lon="13.55325203194453"><ele>38.0</ele><time>2026-05-05T15:52:03.999Z</time></trkpt><trkpt lat="43.362802597200954" lon="13.553352909877978"><ele>38.0</ele><time>2026-05-05T15:52:06.999Z</time></trkpt><trkpt lat="43.36280406297548" lon="13.553453391142726"><ele>38.0</ele><time>2026-05-05T15:52:09.999Z</time></trkpt><trkpt lat="43.36281488662655" lon="13.55355911874127"><ele>38.0</ele><time>2026-05-05T15:52:12.999Z</time></trkpt><trkpt lat="43.36283376880749" lon="13.553658932778625"><ele>38.0</ele><time>2026-05-05T15:52:15.999Z</time></trkpt><trkpt lat="43.36284885616132" lon="13.55376018693339"><ele>38.0</ele><time>2026-05-05T15:52:18.999Z</time></trkpt><trkpt lat="43.362856545274724" lon="13.553862194313341"><ele>38.0</ele><time>2026-05-05T15:52:21.999Z</time></trkpt><trkpt lat="43.36287079999439" lon="13.5539622251254"><ele>38.166666666666664</ele><time>2026-05-05T15:52:24.999Z</time></trkpt><trkpt lat="43.362883005389115" lon="13.554055322750916"><ele>38.33333333333333</ele><time>2026-05-05T15:52:27.999Z</time></trkpt><trkpt lat="43.362889241302874" lon="13.554147982933605"><ele>38.5</ele><time>2026-05-05T15:52:30.999Z</time></trkpt><trkpt lat="43.36290931743192" lon="13.554249990540098"><ele>38.666666666666664</ele><time>2026-05-05T15:52:34Z</time></trkpt><trkpt lat="43.362901042221615" lon="13.554361770592921"><ele>38.833333333333336</ele><time>2026-05-05T15:52:37Z</time></trkpt><trkpt lat="43.36291029967423" lon="13.55447278432813"><ele>39.0</ele><time>2026-05-05T15:52:40Z</time></trkpt><trkpt lat="43.36293408601167" lon="13.554570951279484"><ele>39.0</ele><time>2026-05-05T15:52:43Z</time></trkpt><trkpt lat="43.36295094084423" lon="13.554668339844097"><ele>39.0</ele><time>2026-05-05T15:52:46Z</time></trkpt><trkpt lat="43.362955535942845" lon="13.554758586126361"><ele>39.0</ele><time>2026-05-05T15:52:49Z</time></trkpt><trkpt lat="43.36297281853149" lon="13.554865433002336"><ele>39.0</ele><time>2026-05-05T15:52:52Z</time></trkpt><trkpt lat="43.3629844083414" lon="13.554966884779924"><ele>39.0</ele><time>2026-05-05T15:52:55Z</time></trkpt><trkpt lat="43.36299612796761" lon="13.555072818497173"><ele>39.0</ele><time>2026-05-05T15:52:58Z</time></trkpt><trkpt lat="43.36301528923648" lon="13.55516023652999"><ele>39.0</ele><time>2026-05-05T15:53:01Z</time></trkpt><trkpt lat="43.363012859355" lon="13.555282649289914"><ele>39.0</ele><time>2026-05-05T15:53:04Z</time></trkpt><trkpt lat="43.36301672720093" lon="13.555394875799484"><ele>39.0</ele><time>2026-05-05T15:53:07Z</time></trkpt><trkpt lat="43.363006861896935" lon="13.5554971754515"><ele>39.0</ele><time>2026-05-05T15:53:10Z</time></trkpt><trkpt lat="43.36298974861612" lon="13.555616506035848"><ele>39.0</ele><time>2026-05-05T15:53:13Z</time></trkpt><trkpt lat="43.36295097666533" lon="13.555685390441457"><ele>39.0</ele><time>2026-05-05T15:53:15Z</time></trkpt><trkpt lat="43.36288920184402" lon="13.555759577919455"><ele>39.0</ele><time>2026-05-05T15:53:18Z</time></trkpt><trkpt lat="43.362821291031935" lon="13.555807549143145"><ele>39.0</ele><time>2026-05-05T15:53:21Z</time></trkpt><trkpt lat="43.362762919858476" lon="13.555871054816508"><ele>39.0</ele><time>2026-05-05T15:53:24Z</time></trkpt><trkpt lat="43.36271579430198" lon="13.555949977974416"><ele>39.0</ele><time>2026-05-05T15:53:27Z</time></trkpt><trkpt lat="43.36267059792966" lon="13.556039850091645"><ele>39.0</ele><time>2026-05-05T15:53:29.999Z</time></trkpt><trkpt lat="43.36262837020498" lon="13.556124108918503"><ele>39.0</ele><time>2026-05-05T15:53:32.999Z</time></trkpt><trkpt lat="43.36261831489296" lon="13.556231037797795"><ele>39.0</ele><time>2026-05-05T15:53:35.999Z</time></trkpt><trkpt lat="43.36261659520616" lon="13.556335431808506"><ele>38.833333333333336</ele><time>2026-05-05T15:53:38.999Z</time></trkpt><trkpt lat="43.362618697785656" lon="13.5564406328505"><ele>38.666666666666664</ele><time>2026-05-05T15:53:41.999Z</time></trkpt><trkpt lat="43.362633442793665" lon="13.556541039312224"><ele>38.5</ele><time>2026-05-05T15:53:44.999Z</time></trkpt><trkpt lat="43.36262784456129" lon="13.556646836703628"><ele>38.33333333333333</ele><time>2026-05-05T15:53:47.999Z</time></trkpt><trkpt lat="43.3626378006402" lon="13.556751273960261"><ele>38.166666666666664</ele><time>2026-05-05T15:53:50.999Z</time></trkpt><trkpt lat="43.36263568046493" lon="13.556845028032294"><ele>38.0</ele><time>2026-05-05T15:53:53.999Z</time></trkpt><trkpt lat="43.362661194291434" lon="13.556948478854775"><ele>37.57142857142857</ele><time>2026-05-05T15:53:56.999Z</time></trkpt><trkpt lat="43.36265591005197" lon="13.557044720727971"><ele>37.142857142857146</ele><time>2026-05-05T15:53:59.999Z</time></trkpt><trkpt lat="43.36265398149218" lon="13.557144865837934"><ele>36.714285714285715</ele><time>2026-05-05T15:54:02.999Z</time></trkpt><trkpt lat="43.362661290754275" lon="13.557244165018075"><ele>36.285714285714285</ele><time>2026-05-05T15:54:05.999Z</time></trkpt><trkpt lat="43.36266726560546" lon="13.557346383184825"><ele>35.85714285714286</ele><time>2026-05-05T15:54:08.999Z</time></trkpt><trkpt lat="43.36267007450563" lon="13.55744763676"><ele>35.42857142857143</ele><time>2026-05-05T15:54:11.999Z</time></trkpt><trkpt lat="43.36268383825975" lon="13.557544219915936"><ele>35.0</ele><time>2026-05-05T15:54:14.999Z</time></trkpt><trkpt lat="43.362680359503216" lon="13.557648045551511"><ele>35.0</ele><time>2026-05-05T15:54:17.999Z</time></trkpt><trkpt lat="43.362688673205824" lon="13.5577493066289"><ele>35.0</ele><time>2026-05-05T15:54:20.999Z</time></trkpt><trkpt lat="43.36270644503911" lon="13.557852427349488"><ele>35.0</ele><time>2026-05-05T15:54:23.999Z</time></trkpt><trkpt lat="43.362722581505025" lon="13.557944007807064"><ele>35.0</ele><time>2026-05-05T15:54:26.999Z</time></trkpt><trkpt lat="43.36272375836954" lon="13.558050392630674"><ele>35.0</ele><time>2026-05-05T15:54:29.999Z</time></trkpt><trkpt lat="43.3627260532045" lon="13.558148173870443"><ele>35.0</ele><time>2026-05-05T15:54:32.999Z</time></trkpt><trkpt lat="43.36273724582509" lon="13.558247634001061"><ele>35.0</ele><time>2026-05-05T15:54:35.999Z</time></trkpt><trkpt lat="43.36274653068638" lon="13.558350188159816"><ele>35.33333333333333</ele><time>2026-05-05T15:54:38.999Z</time></trkpt><trkpt lat="43.3627606364223" lon="13.558445883994235"><ele>35.666666666666664</ele><time>2026-05-05T15:54:42Z</time></trkpt><trkpt lat="43.362752457732896" lon="13.55854879677819"><ele>36.0</ele><time>2026-05-05T15:54:45Z</time></trkpt><trkpt lat="43.36268980460987" lon="13.558616245597957"><ele>36.333333333333336</ele><time>2026-05-05T15:54:48Z</time></trkpt><trkpt lat="43.362615230682" lon="13.55862499830272"><ele>36.66666666666667</ele><time>2026-05-05T15:54:51Z</time></trkpt><trkpt lat="43.36253483303928" lon="13.558618950881332"><ele>37.0</ele><time>2026-05-05T15:54:54Z</time></trkpt><trkpt lat="43.36246186598867" lon="13.558616103922924"><ele>37.0</ele><time>2026-05-05T15:54:57Z</time></trkpt><trkpt lat="43.36239148417458" lon="13.55859314898193"><ele>37.0</ele><time>2026-05-05T15:55:00Z</time></trkpt><trkpt lat="43.36231114409523" lon="13.558561920523234"><ele>37.0</ele><time>2026-05-05T15:55:03Z</time></trkpt><trkpt lat="43.36224249822028" lon="13.558575509019908"><ele>37.0</ele><time>2026-05-05T15:55:06Z</time></trkpt><trkpt lat="43.362171189980636" lon="13.558564565471276"><ele>37.0</ele><time>2026-05-05T15:55:09Z</time></trkpt><trkpt lat="43.362098446102884" lon="13.558540766853096"><ele>37.0</ele><time>2026-05-05T15:55:12Z</time></trkpt><trkpt lat="43.362029639837615" lon="13.558532310274332"><ele>37.0</ele><time>2026-05-05T15:55:15Z</time></trkpt><trkpt lat="43.36196280136443" lon="13.558534263007962"><ele>37.0</ele><time>2026-05-05T15:55:18Z</time></trkpt><trkpt lat="43.36189201867227" lon="13.558571319574353"><ele>37.0</ele><time>2026-05-05T15:55:21Z</time></trkpt><trkpt lat="43.36183484698603" lon="13.558647259298947"><ele>37.0</ele><time>2026-05-05T15:55:24Z</time></trkpt><trkpt lat="43.361788445851474" lon="13.558733182340468"><ele>37.0</ele><time>2026-05-05T15:55:27Z</time></trkpt><trkpt lat="43.361746928250504" lon="13.55883227116034"><ele>37.0</ele><time>2026-05-05T15:55:30Z</time></trkpt><trkpt lat="43.36170782359925" lon="13.558906881667898"><ele>37.0</ele><time>2026-05-05T15:55:33Z</time></trkpt><trkpt lat="43.36167204631612" lon="13.558998670352949"><ele>36.833333333333336</ele><time>2026-05-05T15:55:36Z</time></trkpt><trkpt lat="43.361621264049276" lon="13.559092071187493"><ele>36.66666666666667</ele><time>2026-05-05T15:55:39Z</time></trkpt><trkpt lat="43.361590712752985" lon="13.559178041907872"><ele>36.5</ele><time>2026-05-05T15:55:42Z</time></trkpt><trkpt lat="43.36155373601838" lon="13.559273981475522"><ele>36.333333333333336</ele><time>2026-05-05T15:55:44.999Z</time></trkpt><trkpt lat="43.36151377164879" lon="13.559352911381149"><ele>36.166666666666664</ele><time>2026-05-05T15:55:47.999Z</time></trkpt><trkpt lat="43.36147601418789" lon="13.559438190981345"><ele>36.0</ele><time>2026-05-05T15:55:50.999Z</time></trkpt><trkpt lat="43.36144184419136" lon="13.559528962135333"><ele>36.28571428571429</ele><time>2026-05-05T15:55:53.999Z</time></trkpt><trkpt lat="43.36140616735178" lon="13.559614027736195"><ele>36.57142857142857</ele><time>2026-05-05T15:55:56.999Z</time></trkpt><trkpt lat="43.36138837743713" lon="13.5597053964038"><ele>36.85714285714286</ele><time>2026-05-05T15:55:59.999Z</time></trkpt><trkpt lat="43.36136546202589" lon="13.559818054988474"><ele>37.142857142857146</ele><time>2026-05-05T15:56:02.999Z</time></trkpt><trkpt lat="43.36135448809392" lon="13.559914118262927"><ele>37.42857142857143</ele><time>2026-05-05T15:56:05.999Z</time></trkpt><trkpt lat="43.36135369821359" lon="13.560016784258462"><ele>37.714285714285715</ele><time>2026-05-05T15:56:08.999Z</time></trkpt><trkpt lat="43.36135170117663" lon="13.560121832105569"><ele>38.0</ele><time>2026-05-05T15:56:11.999Z</time></trkpt><trkpt lat="43.361344277543985" lon="13.560215208666756"><ele>38.0</ele><time>2026-05-05T15:56:14.999Z</time></trkpt><trkpt lat="43.361337918370964" lon="13.560312671609738"><ele>38.0</ele><time>2026-05-05T15:56:17.999Z</time></trkpt><trkpt lat="43.361321799188175" lon="13.560417855051499"><ele>38.0</ele><time>2026-05-05T15:56:20.999Z</time></trkpt><trkpt lat="43.36131930817126" lon="13.560526052748727"><ele>38.0</ele><time>2026-05-05T15:56:23.999Z</time></trkpt><trkpt lat="43.36132906034244" lon="13.560637186586202"><ele>38.0</ele><time>2026-05-05T15:56:26.999Z</time></trkpt><trkpt lat="43.36132934121359" lon="13.560737176126379"><ele>38.0</ele><time>2026-05-05T15:56:29.999Z</time></trkpt><trkpt lat="43.36131165296082" lon="13.560831924151366"><ele>38.0</ele><time>2026-05-05T15:56:32.999Z</time></trkpt><trkpt lat="43.36130244065214" lon="13.560940049245282"><ele>38.0</ele><time>2026-05-05T15:56:35.999Z</time></trkpt><trkpt lat="43.36129718845846" lon="13.561051148493608"><ele>38.0</ele><time>2026-05-05T15:56:38.999Z</time></trkpt><trkpt lat="43.361303313844644" lon="13.561159858699943"><ele>38.0</ele><time>2026-05-05T15:56:41.999Z</time></trkpt><trkpt lat="43.361279405369864" lon="13.561259563820343"><ele>38.0</ele><time>2026-05-05T15:56:44.999Z</time></trkpt><trkpt lat="43.36127723282521" lon="13.561357470879072"><ele>38.0</ele><time>2026-05-05T15:56:48Z</time></trkpt><trkpt lat="43.36127480181777" lon="13.561467132552798"><ele>37.83333333333333</ele><time>2026-05-05T15:56:51Z</time></trkpt><trkpt lat="43.36126839395117" lon="13.561569729428294"><ele>37.666666666666664</ele><time>2026-05-05T15:56:54Z</time></trkpt><trkpt lat="43.36124298645953" lon="13.561670394021085"><ele>37.5</ele><time>2026-05-05T15:56:57Z</time></trkpt><trkpt lat="43.36118371688062" lon="13.561747655737205"><ele>37.333333333333336</ele><time>2026-05-05T15:57:00Z</time></trkpt><trkpt lat="43.361112769222665" lon="13.561811979632038"><ele>37.16666666666667</ele><time>2026-05-05T15:57:04Z</time></trkpt><trkpt lat="43.3610431526535" lon="13.561849297736298"><ele>37.0</ele><time>2026-05-05T15:57:07Z</time></trkpt><trkpt lat="43.36098154065611" lon="13.561902659762225"><ele>37.0</ele><time>2026-05-05T15:57:10Z</time></trkpt><trkpt lat="43.3609090945062" lon="13.561928870559496"><ele>37.0</ele><time>2026-05-05T15:57:13Z</time></trkpt><trkpt lat="43.36083096378553" lon="13.561950652170962"><ele>37.0</ele><time>2026-05-05T15:57:16Z</time></trkpt><trkpt lat="43.36076489523149" lon="13.561970486515103"><ele>37.0</ele><time>2026-05-05T15:57:19Z</time></trkpt><trkpt lat="43.36068113888834" lon="13.561977313871543"><ele>37.0</ele><time>2026-05-05T15:57:23Z</time></trkpt><trkpt lat="43.36060801452565" lon="13.562002890474993"><ele>37.0</ele><time>2026-05-05T15:57:26Z</time></trkpt><trkpt lat="43.36054107157412" lon="13.562014635669254"><ele>37.0</ele><time>2026-05-05T15:57:29Z</time></trkpt><trkpt lat="43.360470192752416" lon="13.562035280037872"><ele>37.285714285714285</ele><time>2026-05-05T15:57:32Z</time></trkpt><trkpt lat="43.360393658996315" lon="13.562054141029048"><ele>37.57142857142857</ele><time>2026-05-05T15:57:35Z</time></trkpt><trkpt lat="43.36031819625573" lon="13.562065263636006"><ele>37.85714285714286</ele><time>2026-05-05T15:57:38Z</time></trkpt><trkpt lat="43.36024913373371" lon="13.562093577943902"><ele>38.14285714285714</ele><time>2026-05-05T15:57:41Z</time></trkpt><trkpt lat="43.36017743491226" lon="13.562104111401323"><ele>38.42857142857142</ele><time>2026-05-05T15:57:44Z</time></trkpt><trkpt lat="43.36011214529893" lon="13.562116038038388"><ele>38.714285714285715</ele><time>2026-05-05T15:57:47Z</time></trkpt><trkpt lat="43.360033478844855" lon="13.562130290311513"><ele>39.0</ele><time>2026-05-05T15:57:50Z</time></trkpt><trkpt lat="43.359948492634764" lon="13.562152438036915"><ele>39.0</ele><time>2026-05-05T15:57:53.999Z</time></trkpt><trkpt lat="43.35987849373339" lon="13.56215525034119"><ele>39.0</ele><time>2026-05-05T15:57:56.999Z</time></trkpt><trkpt lat="43.359802368017846" lon="13.56219396576555"><ele>39.0</ele><time>2026-05-05T15:57:59.999Z</time></trkpt><trkpt lat="43.35972850035427" lon="13.56221365318979"><ele>39.0</ele><time>2026-05-05T15:58:02.999Z</time></trkpt><trkpt lat="43.359666370235246" lon="13.562245485415273"><ele>39.0</ele><time>2026-05-05T15:58:05.999Z</time></trkpt><trkpt lat="43.35958688395914" lon="13.562247518086814"><ele>39.0</ele><time>2026-05-05T15:58:08.999Z</time></trkpt><trkpt lat="43.35951394174024" lon="13.562260723598268"><ele>39.0</ele><time>2026-05-05T15:58:11.999Z</time></trkpt><trkpt lat="43.35944487830724" lon="13.56227633395683"><ele>38.714285714285715</ele><time>2026-05-05T15:58:14.999Z</time></trkpt><trkpt lat="43.359374833186926" lon="13.562285855643829"><ele>38.42857142857142</ele><time>2026-05-05T15:58:17.999Z</time></trkpt><trkpt lat="43.35929953132979" lon="13.56230902821675"><ele>38.14285714285714</ele><time>2026-05-05T15:58:20.999Z</time></trkpt><trkpt lat="43.35923077942079" lon="13.562318859275413"><ele>37.85714285714286</ele><time>2026-05-05T15:58:23.999Z</time></trkpt><trkpt lat="43.35916015440199" lon="13.562341527920433"><ele>37.57142857142857</ele><time>2026-05-05T15:58:26.999Z</time></trkpt><trkpt lat="43.35909065892035" lon="13.562346752319403"><ele>37.285714285714285</ele><time>2026-05-05T15:58:29.999Z</time></trkpt><trkpt lat="43.35901446921333" lon="13.562355503852995"><ele>37.0</ele><time>2026-05-05T15:58:32.999Z</time></trkpt><trkpt lat="43.35893640744932" lon="13.562382083656255"><ele>37.0</ele><time>2026-05-05T15:58:35.999Z</time></trkpt><trkpt lat="43.35887352290465" lon="13.562389987321424"><ele>37.0</ele><time>2026-05-05T15:58:38.999Z</time></trkpt><trkpt lat="43.35880486947812" lon="13.562405858534836"><ele>37.0</ele><time>2026-05-05T15:58:41.999Z</time></trkpt><trkpt lat="43.35873241169664" lon="13.562430080554163"><ele>37.0</ele><time>2026-05-05T15:58:44.999Z</time></trkpt><trkpt lat="43.358664091832786" lon="13.562447022749257"><ele>37.0</ele><time>2026-05-05T15:58:47.999Z</time></trkpt><trkpt lat="43.35859675579454" lon="13.562469340799547"><ele>37.0</ele><time>2026-05-05T15:58:50.999Z</time></trkpt><trkpt lat="43.3585285307067" lon="13.56249743842808"><ele>37.0</ele><time>2026-05-05T15:58:54Z</time></trkpt><trkpt lat="43.35846262459965" lon="13.56251297865357"><ele>37.142857142857146</ele><time>2026-05-05T15:58:57Z</time></trkpt><trkpt lat="43.3583978231344" lon="13.562530356296614"><ele>37.285714285714285</ele><time>2026-05-05T15:59:00Z</time></trkpt><trkpt lat="43.358328613157816" lon="13.562563819157498"><ele>37.42857142857143</ele><time>2026-05-05T15:59:03Z</time></trkpt><trkpt lat="43.35825842964925" lon="13.562602104727402"><ele>37.57142857142857</ele><time>2026-05-05T15:59:06Z</time></trkpt><trkpt lat="43.35819922796825" lon="13.562642699663883"><ele>37.714285714285715</ele><time>2026-05-05T15:59:09Z</time></trkpt><trkpt lat="43.35814006667706" lon="13.562687984756"><ele>37.857142857142854</ele><time>2026-05-05T15:59:12Z</time></trkpt><trkpt lat="43.35807162817596" lon="13.562713411888126"><ele>38.0</ele><time>2026-05-05T15:59:15Z</time></trkpt><trkpt lat="43.35799294005315" lon="13.562744911518433"><ele>38.285714285714285</ele><time>2026-05-05T15:59:19Z</time></trkpt><trkpt lat="43.35792982703449" lon="13.56279660050194"><ele>38.57142857142858</ele><time>2026-05-05T15:59:22Z</time></trkpt><trkpt lat="43.357872896298765" lon="13.56284692638974"><ele>38.85714285714286</ele><time>2026-05-05T15:59:25Z</time></trkpt><trkpt lat="43.35780786525653" lon="13.562883223683516"><ele>39.14285714285714</ele><time>2026-05-05T15:59:28Z</time></trkpt><trkpt lat="43.35774483270646" lon="13.562922947690577"><ele>39.42857142857143</ele><time>2026-05-05T15:59:31Z</time></trkpt><trkpt lat="43.357685037871974" lon="13.562971446844363"><ele>39.714285714285715</ele><time>2026-05-05T15:59:34Z</time></trkpt><trkpt lat="43.35761903903586" lon="13.562999917060903"><ele>40.0</ele><time>2026-05-05T15:59:37Z</time></trkpt><trkpt lat="43.35756216112949" lon="13.563041819135803"><ele>40.16666666666667</ele><time>2026-05-05T15:59:40Z</time></trkpt><trkpt lat="43.35748185496378" lon="13.563065826615377"><ele>40.333333333333336</ele><time>2026-05-05T15:59:43Z</time></trkpt><trkpt lat="43.35741222310583" lon="13.56313219215064"><ele>40.5</ele><time>2026-05-05T15:59:47Z</time></trkpt><trkpt lat="43.357346618463055" lon="13.563181106870086"><ele>40.666666666666664</ele><time>2026-05-05T15:59:50Z</time></trkpt><trkpt lat="43.35728148670036" lon="13.563227533307462"><ele>40.83333333333333</ele><time>2026-05-05T15:59:52.999Z</time></trkpt><trkpt lat="43.357218260355765" lon="13.563270585169038"><ele>41.0</ele><time>2026-05-05T15:59:55.999Z</time></trkpt><trkpt lat="43.35714008880499" lon="13.563309324172735"><ele>41.285714285714285</ele><time>2026-05-05T15:59:58.999Z</time></trkpt><trkpt lat="43.35708306177115" lon="13.563349428605001"><ele>41.57142857142857</ele><time>2026-05-05T16:00:01.999Z</time></trkpt><trkpt lat="43.35702164442522" lon="13.563398809723665"><ele>41.85714285714286</ele><time>2026-05-05T16:00:04.999Z</time></trkpt><trkpt lat="43.3569432755852" lon="13.563446559753201"><ele>42.14285714285714</ele><time>2026-05-05T16:00:08.999Z</time></trkpt><trkpt lat="43.35687529350581" lon="13.563491820318292"><ele>42.42857142857143</ele><time>2026-05-05T16:00:11.999Z</time></trkpt><trkpt lat="43.35680435308841" lon="13.563540583875618"><ele>42.714285714285715</ele><time>2026-05-05T16:00:14.999Z</time></trkpt><trkpt lat="43.35674704700383" lon="13.563583566174652"><ele>43.0</ele><time>2026-05-05T16:00:17.999Z</time></trkpt><trkpt lat="43.35668151667502" lon="13.563629309923822"><ele>43.0</ele><time>2026-05-05T16:00:20.999Z</time></trkpt><trkpt lat="43.3566207522405" lon="13.563664406117157"><ele>43.0</ele><time>2026-05-05T16:00:23.999Z</time></trkpt><trkpt lat="43.35655976386425" lon="13.563717350786535"><ele>43.0</ele><time>2026-05-05T16:00:26.999Z</time></trkpt><trkpt lat="43.35649040084724" lon="13.563749945748723"><ele>43.0</ele><time>2026-05-05T16:00:29.999Z</time></trkpt><trkpt lat="43.35641626779306" lon="13.563803202732196"><ele>43.0</ele><time>2026-05-05T16:00:32.999Z</time></trkpt><trkpt lat="43.356349562039384" lon="13.563837809098889"><ele>43.0</ele><time>2026-05-05T16:00:35.999Z</time></trkpt><trkpt lat="43.35627834470181" lon="13.563901914199677"><ele>43.66666666666667</ele><time>2026-05-05T16:00:38.999Z</time></trkpt><trkpt lat="43.356204702169435" lon="13.563921136006597"><ele>44.333333333333336</ele><time>2026-05-05T16:00:41.999Z</time></trkpt><trkpt lat="43.35613093003617" lon="13.563882211138145"><ele>45.0</ele><time>2026-05-05T16:00:44.999Z</time></trkpt><trkpt lat="43.356065732691015" lon="13.563801802550433"><ele>45.666666666666664</ele><time>2026-05-05T16:00:47.999Z</time></trkpt><trkpt lat="43.35602514124697" lon="13.563708392261642"><ele>46.33333333333333</ele><time>2026-05-05T16:00:50.999Z</time></trkpt><trkpt lat="43.355983291825254" lon="13.563622765410003"><ele>47.0</ele><time>2026-05-05T16:00:53.999Z</time></trkpt><trkpt lat="43.355936564368115" lon="13.563544329694704"><ele>47.0</ele><time>2026-05-05T16:00:56.999Z</time></trkpt><trkpt lat="43.355884770053116" lon="13.563476229839592"><ele>47.0</ele><time>2026-05-05T16:01:00Z</time></trkpt><trkpt lat="43.35583184364181" lon="13.563403473192814"><ele>47.0</ele><time>2026-05-05T16:01:03Z</time></trkpt><trkpt lat="43.35578490694969" lon="13.56331028355518"><ele>47.0</ele><time>2026-05-05T16:01:06Z</time></trkpt><trkpt lat="43.35572892335715" lon="13.563224806354343"><ele>47.0</ele><time>2026-05-05T16:01:09Z</time></trkpt><trkpt lat="43.35568395629167" lon="13.563139870752417"><ele>47.0</ele><time>2026-05-05T16:01:12Z</time></trkpt><trkpt lat="43.35563992515352" lon="13.563060048192362"><ele>47.0</ele><time>2026-05-05T16:01:15Z</time></trkpt><trkpt lat="43.35559438042007" lon="13.562979364028076"><ele>47.0</ele><time>2026-05-05T16:01:18Z</time></trkpt><trkpt lat="43.35554133327778" lon="13.562896061191145"><ele>47.0</ele><time>2026-05-05T16:01:21Z</time></trkpt><trkpt lat="43.35549198092733" lon="13.562806157121246"><ele>47.0</ele><time>2026-05-05T16:01:24Z</time></trkpt><trkpt lat="43.355439312669624" lon="13.562721217919943"><ele>47.0</ele><time>2026-05-05T16:01:27Z</time></trkpt><trkpt lat="43.35539758001617" lon="13.562629698189452"><ele>47.0</ele><time>2026-05-05T16:01:30Z</time></trkpt><trkpt lat="43.35535329535731" lon="13.562548618016233"><ele>47.666666666666664</ele><time>2026-05-05T16:01:33Z</time></trkpt><trkpt lat="43.3553190049402" lon="13.562458196841437"><ele>48.33333333333333</ele><time>2026-05-05T16:01:36Z</time></trkpt><trkpt lat="43.355265554621035" lon="13.56237247744419"><ele>49.0</ele><time>2026-05-05T16:01:39Z</time></trkpt><trkpt lat="43.355224533744604" lon="13.562280600581806"><ele>49.666666666666664</ele><time>2026-05-05T16:01:42Z</time></trkpt><trkpt lat="43.355175788747545" lon="13.562185881691612"><ele>50.333333333333336</ele><time>2026-05-05T16:01:45Z</time></trkpt><trkpt lat="43.35513509385367" lon="13.562097072563102"><ele>51.0</ele><time>2026-05-05T16:01:48Z</time></trkpt><trkpt lat="43.3550848382785" lon="13.562000919335006"><ele>51.0</ele><time>2026-05-05T16:01:51Z</time></trkpt><trkpt lat="43.35505169521358" lon="13.561904652426271"><ele>51.0</ele><time>2026-05-05T16:01:54Z</time></trkpt><trkpt lat="43.35500898861493" lon="13.561812295093597"><ele>51.0</ele><time>2026-05-05T16:01:57Z</time></trkpt><trkpt lat="43.35495211994338" lon="13.561720764411962"><ele>51.0</ele><time>2026-05-05T16:01:59.999Z</time></trkpt><trkpt lat="43.35490867207906" lon="13.561624261808142"><ele>51.0</ele><time>2026-05-05T16:02:02.999Z</time></trkpt><trkpt lat="43.35485768464182" lon="13.56154181561776"><ele>51.0</ele><time>2026-05-05T16:02:05.999Z</time></trkpt><trkpt lat="43.35482235848188" lon="13.56144403498716"><ele>51.0</ele><time>2026-05-05T16:02:08.999Z</time></trkpt><trkpt lat="43.354763880884214" lon="13.56135000098129"><ele>51.0</ele><time>2026-05-05T16:02:11.999Z</time></trkpt><trkpt lat="43.354713720707416" lon="13.561252794485204"><ele>51.0</ele><time>2026-05-05T16:02:14.999Z</time></trkpt><trkpt lat="43.354688406502916" lon="13.561145107551024"><ele>51.0</ele><time>2026-05-05T16:02:17.999Z</time></trkpt><trkpt lat="43.35466377141071" lon="13.561047586535745"><ele>51.0</ele><time>2026-05-05T16:02:20.999Z</time></trkpt><trkpt lat="43.35463452763784" lon="13.560936621014784"><ele>51.0</ele><time>2026-05-05T16:02:23.999Z</time></trkpt><trkpt lat="43.35461672396481" lon="13.560827278524247"><ele>51.666666666666664</ele><time>2026-05-05T16:02:26.999Z</time></trkpt><trkpt lat="43.354605457004446" lon="13.56072129495927"><ele>52.33333333333333</ele><time>2026-05-05T16:02:29.999Z</time></trkpt><trkpt lat="43.35459625892194" lon="13.560600924677592"><ele>53.0</ele><time>2026-05-05T16:02:32.999Z</time></trkpt><trkpt lat="43.354586341811824" lon="13.56048328231173"><ele>53.666666666666664</ele><time>2026-05-05T16:02:35.999Z</time></trkpt><trkpt lat="43.35457600946143" lon="13.560370904405989"><ele>54.33333333333333</ele><time>2026-05-05T16:02:38.999Z</time></trkpt><trkpt lat="43.354569419096194" lon="13.560283918820229"><ele>55.0</ele><time>2026-05-05T16:02:40.999Z</time></trkpt><trkpt lat="43.354548549087724" lon="13.560172236367007"><ele>54.99999999999999</ele><time>2026-05-05T16:02:43.999Z</time></trkpt><trkpt lat="43.3545304145023" lon="13.560067426749857"><ele>55.0</ele><time>2026-05-05T16:02:46.999Z</time></trkpt><trkpt lat="43.35451680431403" lon="13.559955228029597"><ele>55.0</ele><time>2026-05-05T16:02:49.999Z</time></trkpt><trkpt lat="43.35449686712607" lon="13.559844447254513"><ele>55.0</ele><time>2026-05-05T16:02:52.999Z</time></trkpt><trkpt lat="43.35448856085527" lon="13.559728345671223"><ele>54.99999999999999</ele><time>2026-05-05T16:02:55.999Z</time></trkpt><trkpt lat="43.354460994129255" lon="13.559611851150345"><ele>55.0</ele><time>2026-05-05T16:02:58.999Z</time></trkpt><trkpt lat="43.35444369530411" lon="13.55949652362573"><ele>54.83333333333333</ele><time>2026-05-05T16:03:01.999Z</time></trkpt><trkpt lat="43.354414423135616" lon="13.559390724646603"><ele>54.666666666666664</ele><time>2026-05-05T16:03:05Z</time></trkpt><trkpt lat="43.35438470570371" lon="13.559265814175655"><ele>54.5</ele><time>2026-05-05T16:03:08Z</time></trkpt><trkpt lat="43.35437382550376" lon="13.559150086084127"><ele>54.33333333333333</ele><time>2026-05-05T16:03:11Z</time></trkpt><trkpt lat="43.35433363412859" lon="13.55902814562715"><ele>54.166666666666664</ele><time>2026-05-05T16:03:14Z</time></trkpt><trkpt lat="43.354314536041244" lon="13.558923111763878"><ele>54.0</ele><time>2026-05-05T16:03:17Z</time></trkpt><trkpt lat="43.3542912931228" lon="13.558811205251681"><ele>53.833333333333336</ele><time>2026-05-05T16:03:20Z</time></trkpt><trkpt lat="43.35426687595367" lon="13.55868980585234"><ele>53.66666666666667</ele><time>2026-05-05T16:03:23Z</time></trkpt><trkpt lat="43.354241296956076" lon="13.558576940115904"><ele>53.5</ele><time>2026-05-05T16:03:26Z</time></trkpt><trkpt lat="43.35421865045119" lon="13.558460128230564"><ele>53.333333333333336</ele><time>2026-05-05T16:03:29Z</time></trkpt><trkpt lat="43.354194998296656" lon="13.55834437568375"><ele>53.16666666666667</ele><time>2026-05-05T16:03:32Z</time></trkpt><trkpt lat="43.35416815848267" lon="13.558227687053767"><ele>53.0</ele><time>2026-05-05T16:03:35Z</time></trkpt><trkpt lat="43.354144534801286" lon="13.558119546268756"><ele>53.00000000000001</ele><time>2026-05-05T16:03:38Z</time></trkpt><trkpt lat="43.35411433295447" lon="13.558033472478494"><ele>53.0</ele><time>2026-05-05T16:03:40Z</time></trkpt><trkpt lat="43.35410281316551" lon="13.557914083476886"><ele>53.0</ele><time>2026-05-05T16:03:43Z</time></trkpt><trkpt lat="43.3540865045032" lon="13.557793556474769"><ele>53.0</ele><time>2026-05-05T16:03:46Z</time></trkpt><trkpt lat="43.35405494364672" lon="13.557690485143914"><ele>53.00000000000001</ele><time>2026-05-05T16:03:49Z</time></trkpt><trkpt lat="43.35400659425326" lon="13.557574434381069"><ele>53.0</ele><time>2026-05-05T16:03:52Z</time></trkpt><trkpt lat="43.35397708347262" lon="13.557456473128243"><ele>52.833333333333336</ele><time>2026-05-05T16:03:55Z</time></trkpt><trkpt lat="43.35394047827338" lon="13.55734613467914"><ele>52.66666666666667</ele><time>2026-05-05T16:03:58Z</time></trkpt><trkpt lat="43.353916899910686" lon="13.55723987486032"><ele>52.5</ele><time>2026-05-05T16:04:01Z</time></trkpt><trkpt lat="43.35389322155053" lon="13.557158871683997"><ele>52.33333333333333</ele><time>2026-05-05T16:04:03Z</time></trkpt><trkpt lat="43.35386897467464" lon="13.557038598459947"><ele>52.166666666666664</ele><time>2026-05-05T16:04:06Z</time></trkpt><trkpt lat="43.353829089186775" lon="13.556935358194671"><ele>52.0</ele><time>2026-05-05T16:04:08.999Z</time></trkpt><trkpt lat="43.35380905124538" lon="13.55682198064223"><ele>51.99999999999999</ele><time>2026-05-05T16:04:11.999Z</time></trkpt><trkpt lat="43.35375415570321" lon="13.55671232251501"><ele>52.0</ele><time>2026-05-05T16:04:14.999Z</time></trkpt><trkpt lat="43.353729024280504" lon="13.556595862620942"><ele>52.0</ele><time>2026-05-05T16:04:17.999Z</time></trkpt><trkpt lat="43.35370520732186" lon="13.556477130166112"><ele>52.0</ele><time>2026-05-05T16:04:20.999Z</time></trkpt><trkpt lat="43.3536782942498" lon="13.556398340188757"><ele>51.99999999999999</ele><time>2026-05-05T16:04:22.999Z</time></trkpt><trkpt lat="43.35366591530016" lon="13.556287373315836"><ele>52.0</ele><time>2026-05-05T16:04:25.999Z</time></trkpt><trkpt lat="43.35364523441248" lon="13.556200490472504"><ele>51.99999999999999</ele><time>2026-05-05T16:04:27.999Z</time></trkpt><trkpt lat="43.35361914992883" lon="13.556082652790858"><ele>52.0</ele><time>2026-05-05T16:04:30.999Z</time></trkpt><trkpt lat="43.353595439227675" lon="13.555968750907784"><ele>52.0</ele><time>2026-05-05T16:04:33.999Z</time></trkpt><trkpt lat="43.3535584572079" lon="13.555865704589069"><ele>52.0</ele><time>2026-05-05T16:04:36.999Z</time></trkpt><trkpt lat="43.35354134742552" lon="13.555760516348208"><ele>51.99999999999999</ele><time>2026-05-05T16:04:39.999Z</time></trkpt><trkpt lat="43.35350149406162" lon="13.55568679346406"><ele>52.0</ele><time>2026-05-05T16:04:41.999Z</time></trkpt><trkpt lat="43.35348200698592" lon="13.55558364622207"><ele>51.99999999999999</ele><time>2026-05-05T16:04:44.999Z</time></trkpt><trkpt lat="43.3534530799844" lon="13.555471586486476"><ele>52.0</ele><time>2026-05-05T16:04:47.999Z</time></trkpt><trkpt lat="43.35341903833289" lon="13.555396481116196"><ele>52.0</ele><time>2026-05-05T16:04:49.999Z</time></trkpt><trkpt lat="43.35339479110402" lon="13.555290096834398"><ele>52.0</ele><time>2026-05-05T16:04:52.999Z</time></trkpt><trkpt lat="43.35336965692628" lon="13.555179852614126"><ele>51.99999999999999</ele><time>2026-05-05T16:04:55.999Z</time></trkpt><trkpt lat="43.35335594558112" lon="13.555065615444063"><ele>52.0</ele><time>2026-05-05T16:04:58.999Z</time></trkpt><trkpt lat="43.35334537528024" lon="13.554947235258414"><ele>51.99999999999999</ele><time>2026-05-05T16:05:01.999Z</time></trkpt><trkpt lat="43.35335042592357" lon="13.554828845704082"><ele>52.0</ele><time>2026-05-05T16:05:04.999Z</time></trkpt><trkpt lat="43.35334991664101" lon="13.55473730036211"><ele>52.0</ele><time>2026-05-05T16:05:06.999Z</time></trkpt><trkpt lat="43.35336028979483" lon="13.554624309217418"><ele>52.0</ele><time>2026-05-05T16:05:10Z</time></trkpt><trkpt lat="43.35336916327631" lon="13.554535276653668"><ele>51.99999999999999</ele><time>2026-05-05T16:05:12Z</time></trkpt><trkpt lat="43.353347073163526" lon="13.55441514781538"><ele>52.0</ele><time>2026-05-05T16:05:15Z</time></trkpt><trkpt lat="43.35331633614791" lon="13.55433728633184"><ele>52.166666666666664</ele><time>2026-05-05T16:05:17Z</time></trkpt><trkpt lat="43.35328298844359" lon="13.55421646782736"><ele>52.33333333333333</ele><time>2026-05-05T16:05:20Z</time></trkpt><trkpt lat="43.353263295595006" lon="13.554115152938092"><ele>52.5</ele><time>2026-05-05T16:05:23Z</time></trkpt><trkpt lat="43.35323181300131" lon="13.554002031750976"><ele>52.66666666666667</ele><time>2026-05-05T16:05:26Z</time></trkpt><trkpt lat="43.353201216935005" lon="13.553889105618676"><ele>52.833333333333336</ele><time>2026-05-05T16:05:29Z</time></trkpt><trkpt lat="43.3531684641103" lon="13.553774642472316"><ele>53.0</ele><time>2026-05-05T16:05:32Z</time></trkpt><trkpt lat="43.35313851185578" lon="13.553698358723533"><ele>53.00000000000001</ele><time>2026-05-05T16:05:34Z</time></trkpt><trkpt lat="43.353087499535505" lon="13.553616664434955"><ele>53.0</ele><time>2026-05-05T16:05:37Z</time></trkpt><trkpt lat="43.35304059375014" lon="13.553527298544273"><ele>53.0</ele><time>2026-05-05T16:05:40Z</time></trkpt><trkpt lat="43.352979205888445" lon="13.553433584815455"><ele>53.0</ele><time>2026-05-05T16:05:43Z</time></trkpt><trkpt lat="43.35291287655799" lon="13.553350030565397"><ele>53.00000000000001</ele><time>2026-05-05T16:05:46Z</time></trkpt><trkpt lat="43.35286794486714" lon="13.553288489263151"><ele>53.0</ele><time>2026-05-05T16:05:48Z</time></trkpt><trkpt lat="43.35280840323046" lon="13.55319787155952"><ele>53.333333333333336</ele><time>2026-05-05T16:05:51Z</time></trkpt><trkpt lat="43.35276570508276" lon="13.553108061376859"><ele>53.66666666666667</ele><time>2026-05-05T16:05:54Z</time></trkpt><trkpt lat="43.35271860680688" lon="13.55300211463464"><ele>54.0</ele><time>2026-05-05T16:05:57Z</time></trkpt><trkpt lat="43.352684982968384" lon="13.552889558947637"><ele>54.33333333333333</ele><time>2026-05-05T16:06:00Z</time></trkpt><trkpt lat="43.35264642950827" lon="13.552775464732223"><ele>54.666666666666664</ele><time>2026-05-05T16:06:03Z</time></trkpt><trkpt lat="43.35261614286385" lon="13.552664591229444"><ele>55.0</ele><time>2026-05-05T16:06:06Z</time></trkpt><trkpt lat="43.35258650834943" lon="13.55258669435617"><ele>55.166666666666664</ele><time>2026-05-05T16:06:08Z</time></trkpt><trkpt lat="43.352561028801084" lon="13.552482753351144"><ele>55.33333333333333</ele><time>2026-05-05T16:06:11Z</time></trkpt><trkpt lat="43.35252503640948" lon="13.552368837755793"><ele>55.5</ele><time>2026-05-05T16:06:14Z</time></trkpt><trkpt lat="43.35249817460122" lon="13.552259635968456"><ele>55.66666666666667</ele><time>2026-05-05T16:06:16.999Z</time></trkpt><trkpt lat="43.35247668508609" lon="13.552156101905165"><ele>55.833333333333336</ele><time>2026-05-05T16:06:19.999Z</time></trkpt><trkpt lat="43.35245691334021" lon="13.552072152892476"><ele>56.0</ele><time>2026-05-05T16:06:21.999Z</time></trkpt><trkpt lat="43.35242370738408" lon="13.551964474836208"><ele>56.00000000000001</ele><time>2026-05-05T16:06:24.999Z</time></trkpt><trkpt lat="43.3523932179116" lon="13.551885385625319"><ele>56.0</ele><time>2026-05-05T16:06:26.999Z</time></trkpt><trkpt lat="43.35235946135838" lon="13.55178468991364"><ele>56.0</ele><time>2026-05-05T16:06:29.999Z</time></trkpt><trkpt lat="43.35233802395656" lon="13.551697408270147"><ele>56.0</ele><time>2026-05-05T16:06:31.999Z</time></trkpt><trkpt lat="43.3523141190963" lon="13.551588668501578"><ele>56.00000000000001</ele><time>2026-05-05T16:06:34.999Z</time></trkpt><trkpt lat="43.35229650140985" lon="13.551467294899972"><ele>56.0</ele><time>2026-05-05T16:06:37.999Z</time></trkpt><trkpt lat="43.35228814424197" lon="13.551347151260932"><ele>56.0</ele><time>2026-05-05T16:06:40.999Z</time></trkpt><trkpt lat="43.352283782940084" lon="13.551255307826576"><ele>56.0</ele><time>2026-05-05T16:06:42.999Z</time></trkpt><trkpt lat="43.35228520669955" lon="13.551134586760355"><ele>56.0</ele><time>2026-05-05T16:06:45.999Z</time></trkpt><trkpt lat="43.352281424954" lon="13.551039289649518"><ele>56.0</ele><time>2026-05-05T16:06:47.999Z</time></trkpt><trkpt lat="43.35227874011962" lon="13.550927706809876"><ele>56.0</ele><time>2026-05-05T16:06:50.999Z</time></trkpt><trkpt lat="43.35229017978894" lon="13.550841508611711"><ele>56.0</ele><time>2026-05-05T16:06:52.999Z</time></trkpt><trkpt lat="43.352289526818375" lon="13.550751397345104"><ele>56.0</ele><time>2026-05-05T16:06:54.999Z</time></trkpt><trkpt lat="43.35228768263095" lon="13.55062028813742"><ele>56.00000000000001</ele><time>2026-05-05T16:06:57.999Z</time></trkpt><trkpt lat="43.35229148707119" lon="13.55049629326844"><ele>56.0</ele><time>2026-05-05T16:07:00.999Z</time></trkpt><trkpt lat="43.35227654765553" lon="13.55037312027088"><ele>56.0</ele><time>2026-05-05T16:07:03.999Z</time></trkpt><trkpt lat="43.352259016876644" lon="13.550248521899388"><ele>56.0</ele><time>2026-05-05T16:07:06.999Z</time></trkpt><trkpt lat="43.35223981238794" lon="13.5501659145718"><ele>56.00000000000001</ele><time>2026-05-05T16:07:08.999Z</time></trkpt><trkpt lat="43.35221454472017" lon="13.550050360930252"><ele>56.0</ele><time>2026-05-05T16:07:11.999Z</time></trkpt><trkpt lat="43.35219264415192" lon="13.54996190146139"><ele>56.833333333333336</ele><time>2026-05-05T16:07:13.999Z</time></trkpt><trkpt lat="43.35216496523847" lon="13.549843880402134"><ele>57.66666666666667</ele><time>2026-05-05T16:07:17Z</time></trkpt><trkpt lat="43.35212379490066" lon="13.549739137094704"><ele>58.5</ele><time>2026-05-05T16:07:20Z</time></trkpt><trkpt lat="43.35207301058137" lon="13.549619860228978"><ele>59.33333333333333</ele><time>2026-05-05T16:07:23Z</time></trkpt><trkpt lat="43.352036043459854" lon="13.549507307578715"><ele>60.166666666666664</ele><time>2026-05-05T16:07:26Z</time></trkpt><trkpt lat="43.35200922844864" lon="13.549403216685004"><ele>61.0</ele><time>2026-05-05T16:07:29Z</time></trkpt><trkpt lat="43.351978907670045" lon="13.549315715609971"><ele>60.99999999999999</ele><time>2026-05-05T16:07:31Z</time></trkpt><trkpt lat="43.351948481043486" lon="13.54920764407951"><ele>61.0</ele><time>2026-05-05T16:07:34Z</time></trkpt><trkpt lat="43.351912384972934" lon="13.549132470595328"><ele>61.0</ele><time>2026-05-05T16:07:36Z</time></trkpt><trkpt lat="43.351879366496895" lon="13.549047973758562"><ele>61.0</ele><time>2026-05-05T16:07:38Z</time></trkpt><trkpt lat="43.35184561471172" lon="13.548946455273875"><ele>60.99999999999999</ele><time>2026-05-05T16:07:41Z</time></trkpt><trkpt lat="43.35184306575413" lon="13.54885373518279"><ele>61.0</ele><time>2026-05-05T16:07:43Z</time></trkpt><trkpt lat="43.35181381041958" lon="13.548737413542"><ele>60.166666666666664</ele><time>2026-05-05T16:07:46Z</time></trkpt><trkpt lat="43.351801773853076" lon="13.548649332420519"><ele>59.33333333333333</ele><time>2026-05-05T16:07:48Z</time></trkpt><trkpt lat="43.351784853489775" lon="13.548528215317036"><ele>58.5</ele><time>2026-05-05T16:07:51Z</time></trkpt><trkpt lat="43.35177156110683" lon="13.548434240649108"><ele>57.66666666666667</ele><time>2026-05-05T16:07:53Z</time></trkpt><trkpt lat="43.35175724706836" lon="13.548341975200588"><ele>56.833333333333336</ele><time>2026-05-05T16:07:55Z</time></trkpt><trkpt lat="43.351744525800214" lon="13.548219332892526"><ele>56.0</ele><time>2026-05-05T16:07:58Z</time></trkpt><trkpt lat="43.35172997805764" lon="13.548128233260906"><ele>56.00000000000001</ele><time>2026-05-05T16:08:00Z</time></trkpt><trkpt lat="43.35171876711112" lon="13.547998880626597"><ele>56.0</ele><time>2026-05-05T16:08:03Z</time></trkpt><trkpt lat="43.35170454583819" lon="13.54787794978576"><ele>56.0</ele><time>2026-05-05T16:08:06Z</time></trkpt><trkpt lat="43.35168849565502" lon="13.54775732606359"><ele>56.0</ele><time>2026-05-05T16:08:09Z</time></trkpt><trkpt lat="43.35167340371409" lon="13.547668239194703"><ele>56.00000000000001</ele><time>2026-05-05T16:08:11Z</time></trkpt><trkpt lat="43.35166133810619" lon="13.547577153604731"><ele>56.0</ele><time>2026-05-05T16:08:13Z</time></trkpt><trkpt lat="43.35165826116258" lon="13.547448952308695"><ele>55.66666666666667</ele><time>2026-05-05T16:08:16Z</time></trkpt><trkpt lat="43.351641447326024" lon="13.547364914555573"><ele>55.333333333333336</ele><time>2026-05-05T16:08:18Z</time></trkpt><trkpt lat="43.351609229751176" lon="13.547253297041093"><ele>55.0</ele><time>2026-05-05T16:08:21Z</time></trkpt><trkpt lat="43.3515914051245" lon="13.547125843745704"><ele>54.66666666666667</ele><time>2026-05-05T16:08:23.999Z</time></trkpt><trkpt lat="43.351575576763516" lon="13.54704029879877"><ele>54.333333333333336</ele><time>2026-05-05T16:08:25.999Z</time></trkpt><trkpt lat="43.35154942277109" lon="13.546900957162908"><ele>54.0</ele><time>2026-05-05T16:08:28.999Z</time></trkpt><trkpt lat="43.35153554902533" lon="13.546778434729971"><ele>54.0</ele><time>2026-05-05T16:08:31.999Z</time></trkpt><trkpt lat="43.35150295928214" lon="13.546666839311605"><ele>54.0</ele><time>2026-05-05T16:08:34.999Z</time></trkpt><trkpt lat="43.35150329794775" lon="13.546577214320514"><ele>54.0</ele><time>2026-05-05T16:08:36.999Z</time></trkpt><trkpt lat="43.35147403464314" lon="13.54646481201584"><ele>54.0</ele><time>2026-05-05T16:08:39.999Z</time></trkpt><trkpt lat="43.35147196859582" lon="13.546338021713682"><ele>54.0</ele><time>2026-05-05T16:08:42.999Z</time></trkpt><trkpt lat="43.35144765212347" lon="13.546226447762336"><ele>54.0</ele><time>2026-05-05T16:08:45.999Z</time></trkpt><trkpt lat="43.35142944355662" lon="13.546142217812248"><ele>53.5</ele><time>2026-05-05T16:08:47.999Z</time></trkpt><trkpt lat="43.35141887848171" lon="13.546021283079424"><ele>53.0</ele><time>2026-05-05T16:08:50.999Z</time></trkpt><trkpt lat="43.35140401088867" lon="13.54593562784748"><ele>52.5</ele><time>2026-05-05T16:08:52.999Z</time></trkpt><trkpt lat="43.351393590509325" lon="13.545817049497828"><ele>52.0</ele><time>2026-05-05T16:08:55.999Z</time></trkpt><trkpt lat="43.35137390847533" lon="13.545692772144191"><ele>51.5</ele><time>2026-05-05T16:08:58.999Z</time></trkpt><trkpt lat="43.35137262124807" lon="13.54560538528401"><ele>51.0</ele><time>2026-05-05T16:09:00.999Z</time></trkpt><trkpt lat="43.35135570484508" lon="13.545491794482096"><ele>53.0</ele><time>2026-05-05T16:09:03.999Z</time></trkpt><trkpt lat="43.35132564152955" lon="13.545380475654133"><ele>55.0</ele><time>2026-05-05T16:09:06.999Z</time></trkpt><trkpt lat="43.35132152606461" lon="13.545292047868571"><ele>57.0</ele><time>2026-05-05T16:09:08.999Z</time></trkpt><trkpt lat="43.351309010511834" lon="13.545173566133787"><ele>59.0</ele><time>2026-05-05T16:09:11.999Z</time></trkpt><trkpt lat="43.35128753344069" lon="13.545063370724666"><ele>61.0</ele><time>2026-05-05T16:09:14.999Z</time></trkpt><trkpt lat="43.35126778590796" lon="13.544975483205592"><ele>63.0</ele><time>2026-05-05T16:09:16.999Z</time></trkpt><trkpt lat="43.35124818164964" lon="13.5448900567219"><ele>63.0</ele><time>2026-05-05T16:09:18.999Z</time></trkpt><trkpt lat="43.351236447314314" lon="13.5447646692418"><ele>63.0</ele><time>2026-05-05T16:09:22Z</time></trkpt><trkpt lat="43.35122313243146" lon="13.54464111271685"><ele>63.0</ele><time>2026-05-05T16:09:25Z</time></trkpt><trkpt lat="43.35119485832253" lon="13.54456199203083"><ele>63.0</ele><time>2026-05-05T16:09:27Z</time></trkpt><trkpt lat="43.35118306061953" lon="13.544442857188617"><ele>63.0</ele><time>2026-05-05T16:09:30Z</time></trkpt><trkpt lat="43.35116132614807" lon="13.544323288008059"><ele>63.0</ele><time>2026-05-05T16:09:33Z</time></trkpt><trkpt lat="43.351143352800555" lon="13.544199191578933"><ele>62.166666666666664</ele><time>2026-05-05T16:09:36Z</time></trkpt><trkpt lat="43.351124053648334" lon="13.544077497971044"><ele>61.33333333333333</ele><time>2026-05-05T16:09:39Z</time></trkpt><trkpt lat="43.35110215515162" lon="13.543966128417473"><ele>60.5</ele><time>2026-05-05T16:09:42Z</time></trkpt><trkpt lat="43.35108601487146" lon="13.543879596889054"><ele>59.666666666666664</ele><time>2026-05-05T16:09:44Z</time></trkpt><trkpt lat="43.35107450509654" lon="13.54379250787724"><ele>58.83333333333333</ele><time>2026-05-05T16:09:46Z</time></trkpt><trkpt lat="43.351053113129765" lon="13.543686472670947"><ele>58.0</ele><time>2026-05-05T16:09:49Z</time></trkpt><trkpt lat="43.3510383520165" lon="13.543574598373535"><ele>57.666666666666664</ele><time>2026-05-05T16:09:52Z</time></trkpt><trkpt lat="43.35102123582892" lon="13.543459765198262"><ele>57.33333333333333</ele><time>2026-05-05T16:09:55Z</time></trkpt><trkpt lat="43.35099272565283" lon="13.54334610980284"><ele>57.0</ele><time>2026-05-05T16:09:58Z</time></trkpt><trkpt lat="43.35095226187212" lon="13.543239176730054"><ele>56.66666666666667</ele><time>2026-05-05T16:10:01Z</time></trkpt><trkpt lat="43.35091915765214" lon="13.543120564351373"><ele>56.333333333333336</ele><time>2026-05-05T16:10:04Z</time></trkpt><trkpt lat="43.35088646883217" lon="13.543007529707928"><ele>56.0</ele><time>2026-05-05T16:10:07Z</time></trkpt><trkpt lat="43.35085267963993" lon="13.542908822962126"><ele>55.66666666666667</ele><time>2026-05-05T16:10:10Z</time></trkpt><trkpt lat="43.350819291195904" lon="13.542801906146734"><ele>55.333333333333336</ele><time>2026-05-05T16:10:13Z</time></trkpt><trkpt lat="43.350791341783484" lon="13.542691347957476"><ele>55.0</ele><time>2026-05-05T16:10:16Z</time></trkpt><trkpt lat="43.350752197612366" lon="13.542576618841082"><ele>54.66666666666667</ele><time>2026-05-05T16:10:19Z</time></trkpt><trkpt lat="43.35073512900587" lon="13.542492357746656"><ele>54.333333333333336</ele><time>2026-05-05T16:10:21Z</time></trkpt><trkpt lat="43.350702631426316" lon="13.542388666357152"><ele>54.0</ele><time>2026-05-05T16:10:24Z</time></trkpt><trkpt lat="43.35067729246202" lon="13.542306714417304"><ele>54.0</ele><time>2026-05-05T16:10:26Z</time></trkpt><trkpt lat="43.350651296000535" lon="13.542227846687217"><ele>54.0</ele><time>2026-05-05T16:10:28Z</time></trkpt><trkpt lat="43.35062604512068" lon="13.54214127715241"><ele>54.0</ele><time>2026-05-05T16:10:30Z</time></trkpt><trkpt lat="43.3505810206095" lon="13.542039161787535"><ele>54.0</ele><time>2026-05-05T16:10:32.999Z</time></trkpt><trkpt lat="43.35055208841344" lon="13.541955641287707"><ele>54.0</ele><time>2026-05-05T16:10:34.999Z</time></trkpt><trkpt lat="43.35051780204197" lon="13.541845957919874"><ele>54.0</ele><time>2026-05-05T16:10:37.999Z</time></trkpt><trkpt lat="43.35048079738304" lon="13.541735396702341"><ele>54.5</ele><time>2026-05-05T16:10:40.999Z</time></trkpt><trkpt lat="43.3504490114368" lon="13.541620405817422"><ele>55.0</ele><time>2026-05-05T16:10:43.999Z</time></trkpt><trkpt lat="43.35043471994323" lon="13.5415202821989"><ele>55.5</ele><time>2026-05-05T16:10:46.999Z</time></trkpt><trkpt lat="43.350432587112145" lon="13.541422350094813"><ele>56.0</ele><time>2026-05-05T16:10:48.999Z</time></trkpt><trkpt lat="43.35042192503104" lon="13.5413000679136"><ele>56.5</ele><time>2026-05-05T16:10:51.999Z</time></trkpt><trkpt lat="43.35039626561507" lon="13.54119302638654"><ele>57.0</ele><time>2026-05-05T16:10:54.999Z</time></trkpt><trkpt lat="43.3503655166882" lon="13.541115008405306"><ele>57.0</ele><time>2026-05-05T16:10:56.999Z</time></trkpt><trkpt lat="43.35030348193382" lon="13.541021241182595"><ele>57.0</ele><time>2026-05-05T16:10:59.999Z</time></trkpt><trkpt lat="43.350254205745955" lon="13.54092657177196"><ele>57.0</ele><time>2026-05-05T16:11:02.999Z</time></trkpt><trkpt lat="43.35019529792316" lon="13.540848108723145"><ele>57.0</ele><time>2026-05-05T16:11:05.999Z</time></trkpt><trkpt lat="43.35013483831037" lon="13.540759515670834"><ele>57.0</ele><time>2026-05-05T16:11:08.999Z</time></trkpt><trkpt lat="43.35007569000739" lon="13.540675883122292"><ele>57.0</ele><time>2026-05-05T16:11:11.999Z</time></trkpt><trkpt lat="43.35001505145" lon="13.540595453021227"><ele>57.0</ele><time>2026-05-05T16:11:14.999Z</time></trkpt><trkpt lat="43.34996720110665" lon="13.540521688058018"><ele>57.0</ele><time>2026-05-05T16:11:16.999Z</time></trkpt><trkpt lat="43.34991344870429" lon="13.540435179174386"><ele>57.0</ele><time>2026-05-05T16:11:19.999Z</time></trkpt><trkpt lat="43.349866546914456" lon="13.540338597505757"><ele>57.0</ele><time>2026-05-05T16:11:22.999Z</time></trkpt><trkpt lat="43.349844291390475" lon="13.540215454984141"><ele>57.0</ele><time>2026-05-05T16:11:25.999Z</time></trkpt><trkpt lat="43.34983142016596" lon="13.54009227799618"><ele>57.0</ele><time>2026-05-05T16:11:29Z</time></trkpt><trkpt lat="43.34983127202903" lon="13.54000474369448"><ele>57.166666666666664</ele><time>2026-05-05T16:11:31Z</time></trkpt><trkpt lat="43.34984477425555" lon="13.539892543714753"><ele>57.33333333333333</ele><time>2026-05-05T16:11:34Z</time></trkpt><trkpt lat="43.34988289950964" lon="13.539772977655922"><ele>57.5</ele><time>2026-05-05T16:11:37Z</time></trkpt><trkpt lat="43.34991071251702" lon="13.539665431097788"><ele>57.666666666666664</ele><time>2026-05-05T16:11:40Z</time></trkpt><trkpt lat="43.349936478922295" lon="13.539583531502059"><ele>57.83333333333333</ele><time>2026-05-05T16:11:42Z</time></trkpt><trkpt lat="43.34996483211887" lon="13.53946930828088"><ele>58.0</ele><time>2026-05-05T16:11:45Z</time></trkpt><trkpt lat="43.349995298092445" lon="13.539390772303069"><ele>58.33333333333333</ele><time>2026-05-05T16:11:47Z</time></trkpt><trkpt lat="43.350026546774615" lon="13.5392721950453"><ele>58.666666666666664</ele><time>2026-05-05T16:11:50Z</time></trkpt><trkpt lat="43.350047478181246" lon="13.539162649448418"><ele>59.0</ele><time>2026-05-05T16:11:53Z</time></trkpt><trkpt lat="43.35006798977841" lon="13.539080076107327"><ele>59.33333333333333</ele><time>2026-05-05T16:11:55Z</time></trkpt><trkpt lat="43.35010153670339" lon="13.538978353502893"><ele>59.666666666666664</ele><time>2026-05-05T16:11:58Z</time></trkpt><trkpt lat="43.350149760550636" lon="13.538876386755533"><ele>60.0</ele><time>2026-05-05T16:12:01Z</time></trkpt><trkpt lat="43.35018087521708" lon="13.53880068438225"><ele>60.5</ele><time>2026-05-05T16:12:03Z</time></trkpt><trkpt lat="43.35025341315219" lon="13.538711664586867"><ele>61.0</ele><time>2026-05-05T16:12:06Z</time></trkpt><trkpt lat="43.350328489641406" lon="13.538660774296199"><ele>61.5</ele><time>2026-05-05T16:12:09Z</time></trkpt><trkpt lat="43.35037950155285" lon="13.538608529533828"><ele>62.0</ele><time>2026-05-05T16:12:13Z</time></trkpt><trkpt lat="43.350417875970905" lon="13.538604543835893"><ele>62.5</ele><time>2026-05-05T16:14:35.999Z</time></trkpt><trkpt lat="43.35050422189691" lon="13.538535913291813"><ele>63.0</ele><time>2026-05-05T16:14:38.999Z</time></trkpt><trkpt lat="43.35060176156108" lon="13.538509420803596"><ele>61.833333333333336</ele><time>2026-05-05T16:14:41.999Z</time></trkpt><trkpt lat="43.350663071069974" lon="13.538487651202727"><ele>60.66666666666667</ele><time>2026-05-05T16:14:43.999Z</time></trkpt><trkpt lat="43.35072880942071" lon="13.538439149543661"><ele>59.5</ele><time>2026-05-05T16:14:45.999Z</time></trkpt><trkpt lat="43.350786991679286" lon="13.538400262259994"><ele>58.333333333333336</ele><time>2026-05-05T16:14:47.999Z</time></trkpt><trkpt lat="43.35086575627766" lon="13.538346988819624"><ele>57.16666666666667</ele><time>2026-05-05T16:14:50.999Z</time></trkpt><trkpt lat="43.350930198537405" lon="13.538296337261853"><ele>56.0</ele><time>2026-05-05T16:14:52.999Z</time></trkpt><trkpt lat="43.35101853966951" lon="13.538253891448257"><ele>56.00000000000001</ele><time>2026-05-05T16:14:55.999Z</time></trkpt><trkpt lat="43.351103964348965" lon="13.538201184321997"><ele>56.0</ele><time>2026-05-05T16:14:58.999Z</time></trkpt><trkpt lat="43.35115793278865" lon="13.538156067076631"><ele>56.0</ele><time>2026-05-05T16:15:00.999Z</time></trkpt><trkpt lat="43.35123832854384" lon="13.538099193389932"><ele>56.0</ele><time>2026-05-05T16:15:03.999Z</time></trkpt><trkpt lat="43.35132364829791" lon="13.538055629397547"><ele>56.00000000000001</ele><time>2026-05-05T16:15:06.999Z</time></trkpt><trkpt lat="43.35138267461066" lon="13.538001164803411"><ele>56.0</ele><time>2026-05-05T16:15:08.999Z</time></trkpt><trkpt lat="43.35146046398396" lon="13.53794755077196"><ele>55.333333333333336</ele><time>2026-05-05T16:15:11.999Z</time></trkpt><trkpt lat="43.351516761570636" lon="13.537906244861263"><ele>54.66666666666667</ele><time>2026-05-05T16:15:13.999Z</time></trkpt><trkpt lat="43.3515738929881" lon="13.537859262980707"><ele>54.0</ele><time>2026-05-05T16:15:15.999Z</time></trkpt><trkpt lat="43.35164748659648" lon="13.537793038840098"><ele>53.33333333333333</ele><time>2026-05-05T16:15:18.999Z</time></trkpt><trkpt lat="43.35171867344051" lon="13.537725053175075"><ele>52.666666666666664</ele><time>2026-05-05T16:15:21.999Z</time></trkpt><trkpt lat="43.35178307074797" lon="13.537704760444267"><ele>52.0</ele><time>2026-05-05T16:15:23.999Z</time></trkpt><trkpt lat="43.351849999959775" lon="13.53764473074139"><ele>51.83333333333333</ele><time>2026-05-05T16:15:26.999Z</time></trkpt><trkpt lat="43.35191380288236" lon="13.537611242569039"><ele>51.666666666666664</ele><time>2026-05-05T16:15:28.999Z</time></trkpt><trkpt lat="43.351994759761816" lon="13.537553011338753"><ele>51.5</ele><time>2026-05-05T16:15:31.999Z</time></trkpt><trkpt lat="43.352078172103276" lon="13.537486009517872"><ele>51.33333333333333</ele><time>2026-05-05T16:15:34.999Z</time></trkpt><trkpt lat="43.35213408865975" lon="13.537426793343526"><ele>51.166666666666664</ele><time>2026-05-05T16:15:36.999Z</time></trkpt><trkpt lat="43.35219103735209" lon="13.537385164182268"><ele>51.0</ele><time>2026-05-05T16:15:38.999Z</time></trkpt><trkpt lat="43.35227021652731" lon="13.537309647113721"><ele>50.666666666666664</ele><time>2026-05-05T16:15:41.999Z</time></trkpt><trkpt lat="43.35234390948346" lon="13.537242337288955"><ele>50.33333333333333</ele><time>2026-05-05T16:15:44.999Z</time></trkpt><trkpt lat="43.35240306947384" lon="13.537208242561013"><ele>50.0</ele><time>2026-05-05T16:15:47Z</time></trkpt><trkpt lat="43.35247857321127" lon="13.537163469867373"><ele>49.666666666666664</ele><time>2026-05-05T16:15:50Z</time></trkpt><trkpt lat="43.35255869153036" lon="13.53711209968388"><ele>49.33333333333333</ele><time>2026-05-05T16:15:53Z</time></trkpt><trkpt lat="43.35262173527372" lon="13.537052874975506"><ele>49.0</ele><time>2026-05-05T16:15:56Z</time></trkpt><trkpt lat="43.35267898457752" lon="13.537015499440605"><ele>48.99999999999999</ele><time>2026-05-05T16:15:58Z</time></trkpt><trkpt lat="43.35274818721492" lon="13.536932528345563"><ele>49.0</ele><time>2026-05-05T16:16:01Z</time></trkpt><trkpt lat="43.35281026148413" lon="13.536907773964717"><ele>49.0</ele><time>2026-05-05T16:16:03Z</time></trkpt><trkpt lat="43.35288692479556" lon="13.536848938253097"><ele>49.0</ele><time>2026-05-05T16:16:06Z</time></trkpt><trkpt lat="43.35294149579844" lon="13.536798326585293"><ele>48.99999999999999</ele><time>2026-05-05T16:16:08Z</time></trkpt><trkpt lat="43.35301079278381" lon="13.53672494594029"><ele>49.0</ele><time>2026-05-05T16:16:11Z</time></trkpt><trkpt lat="43.35308889673712" lon="13.536665364261525"><ele>48.99999999999999</ele><time>2026-05-05T16:16:14Z</time></trkpt><trkpt lat="43.35315965457066" lon="13.536588106386926"><ele>49.0</ele><time>2026-05-05T16:16:17Z</time></trkpt><trkpt lat="43.35323342022856" lon="13.536515906471452"><ele>49.0</ele><time>2026-05-05T16:16:20Z</time></trkpt><trkpt lat="43.35330779841013" lon="13.53645295433108"><ele>49.0</ele><time>2026-05-05T16:16:23Z</time></trkpt><trkpt lat="43.35337046531125" lon="13.536376540781653"><ele>48.99999999999999</ele><time>2026-05-05T16:16:26Z</time></trkpt><trkpt lat="43.35343879777234" lon="13.536305432537203"><ele>49.0</ele><time>2026-05-05T16:16:29Z</time></trkpt><trkpt lat="43.353511824249125" lon="13.536251460820456"><ele>48.99999999999999</ele><time>2026-05-05T16:16:32Z</time></trkpt><trkpt lat="43.35357766754259" lon="13.53616890995933"><ele>49.0</ele><time>2026-05-05T16:16:35Z</time></trkpt><trkpt lat="43.35363385413493" lon="13.53612969673882"><ele>49.0</ele><time>2026-05-05T16:16:37Z</time></trkpt><trkpt lat="43.35369543696786" lon="13.536049862278622"><ele>49.0</ele><time>2026-05-05T16:16:40Z</time></trkpt><trkpt lat="43.35376957626869" lon="13.535991681684276"><ele>48.99999999999999</ele><time>2026-05-05T16:16:43Z</time></trkpt><trkpt lat="43.353836249655316" lon="13.535930803662389"><ele>49.0</ele><time>2026-05-05T16:16:46Z</time></trkpt><trkpt lat="43.353899725887466" lon="13.535862505711643"><ele>48.99999999999999</ele><time>2026-05-05T16:16:49Z</time></trkpt><trkpt lat="43.35396285999574" lon="13.535773201715896"><ele>49.0</ele><time>2026-05-05T16:16:52Z</time></trkpt><trkpt lat="43.354036316312175" lon="13.535732978821855"><ele>49.0</ele><time>2026-05-05T16:16:54.999Z</time></trkpt><trkpt lat="43.3541125917773" lon="13.535682879190919"><ele>49.0</ele><time>2026-05-05T16:16:57.999Z</time></trkpt><trkpt lat="43.35418782269218" lon="13.535614477618704"><ele>48.99999999999999</ele><time>2026-05-05T16:17:00.999Z</time></trkpt><trkpt lat="43.35425276159937" lon="13.535587846418856"><ele>49.0</ele><time>2026-05-05T16:17:02.999Z</time></trkpt><trkpt lat="43.35431450181667" lon="13.535551977993691"><ele>48.99999999999999</ele><time>2026-05-05T16:17:04.999Z</time></trkpt><trkpt lat="43.35440104969778" lon="13.535497980125069"><ele>49.0</ele><time>2026-05-05T16:17:07.999Z</time></trkpt><trkpt lat="43.354480074303815" lon="13.535459569631415"><ele>49.0</ele><time>2026-05-05T16:17:10.999Z</time></trkpt><trkpt lat="43.3545603107778" lon="13.535427449016996"><ele>49.0</ele><time>2026-05-05T16:17:13.999Z</time></trkpt><trkpt lat="43.35461461167042" lon="13.53538238193248"><ele>48.99999999999999</ele><time>2026-05-05T16:17:15.999Z</time></trkpt><trkpt lat="43.35468017650209" lon="13.535318984199098"><ele>49.0</ele><time>2026-05-05T16:17:18.999Z</time></trkpt><trkpt lat="43.35473449170573" lon="13.535269875895551"><ele>49.33333333333333</ele><time>2026-05-05T16:17:20.999Z</time></trkpt><trkpt lat="43.35479081539261" lon="13.535218722401673"><ele>49.666666666666664</ele><time>2026-05-05T16:17:22.999Z</time></trkpt><trkpt lat="43.35487625527655" lon="13.535187430670813"><ele>50.0</ele><time>2026-05-05T16:17:25.999Z</time></trkpt><trkpt lat="43.3549557405279" lon="13.535124926341036"><ele>50.33333333333333</ele><time>2026-05-05T16:17:28.999Z</time></trkpt><trkpt lat="43.35502642388207" lon="13.53507333527083"><ele>50.666666666666664</ele><time>2026-05-05T16:17:31.999Z</time></trkpt><trkpt lat="43.355106986359466" lon="13.535022653318526"><ele>51.0</ele><time>2026-05-05T16:17:34.999Z</time></trkpt><trkpt lat="43.35518116236982" lon="13.534977967545041"><ele>51.0</ele><time>2026-05-05T16:17:37.999Z</time></trkpt><trkpt lat="43.355251996061405" lon="13.534935926807313"><ele>51.0</ele><time>2026-05-05T16:17:40.999Z</time></trkpt><trkpt lat="43.35533254581833" lon="13.534892382564383"><ele>51.0</ele><time>2026-05-05T16:17:43.999Z</time></trkpt><trkpt lat="43.355399665819796" lon="13.534814147201768"><ele>51.0</ele><time>2026-05-05T16:17:47Z</time></trkpt><trkpt lat="43.35547403476819" lon="13.53475979786189"><ele>51.0</ele><time>2026-05-05T16:17:50Z</time></trkpt><trkpt lat="43.35553595212092" lon="13.534744138507476"><ele>51.0</ele><time>2026-05-05T16:17:52Z</time></trkpt><trkpt lat="43.355614470701916" lon="13.534694160771531"><ele>50.833333333333336</ele><time>2026-05-05T16:17:55Z</time></trkpt><trkpt lat="43.355676996864155" lon="13.534617569521364"><ele>50.66666666666667</ele><time>2026-05-05T16:17:58Z</time></trkpt><trkpt lat="43.3557409252092" lon="13.534534996810475"><ele>50.5</ele><time>2026-05-05T16:18:01Z</time></trkpt><trkpt lat="43.3558080884598" lon="13.53445650709635"><ele>50.333333333333336</ele><time>2026-05-05T16:18:04Z</time></trkpt><trkpt lat="43.35586049026394" lon="13.534368905425785"><ele>50.16666666666667</ele><time>2026-05-05T16:18:07Z</time></trkpt><trkpt lat="43.3559035951212" lon="13.534272895320552"><ele>50.0</ele><time>2026-05-05T16:18:10Z</time></trkpt><trkpt lat="43.35593973007305" lon="13.53415891977394"><ele>50.00000000000001</ele><time>2026-05-05T16:18:13Z</time></trkpt><trkpt lat="43.35595900499204" lon="13.53405202238032"><ele>50.0</ele><time>2026-05-05T16:18:16Z</time></trkpt><trkpt lat="43.35597482426361" lon="13.533933270574263"><ele>50.0</ele><time>2026-05-05T16:18:19Z</time></trkpt><trkpt lat="43.355975429425605" lon="13.533818532006189"><ele>50.0</ele><time>2026-05-05T16:18:22Z</time></trkpt><trkpt lat="43.355988298718835" lon="13.533705641268995"><ele>50.00000000000001</ele><time>2026-05-05T16:18:25Z</time></trkpt><trkpt lat="43.3559864322417" lon="13.533596243467072"><ele>50.0</ele><time>2026-05-05T16:18:28Z</time></trkpt><trkpt lat="43.35599157925705" lon="13.533475333499593"><ele>50.00000000000001</ele><time>2026-05-05T16:18:31Z</time></trkpt><trkpt lat="43.35598894449646" lon="13.533365050744285"><ele>50.0</ele><time>2026-05-05T16:18:34Z</time></trkpt><trkpt lat="43.35600107920393" lon="13.533236382229909"><ele>50.0</ele><time>2026-05-05T16:18:37Z</time></trkpt><trkpt lat="43.35598760038798" lon="13.53313070223253"><ele>50.0</ele><time>2026-05-05T16:18:40Z</time></trkpt><trkpt lat="43.3559972697296" lon="13.533040585442984"><ele>50.00000000000001</ele><time>2026-05-05T16:18:42Z</time></trkpt><trkpt lat="43.35599607471794" lon="13.532938542256916"><ele>50.0</ele><time>2026-05-05T16:18:45Z</time></trkpt><trkpt lat="43.35600153083196" lon="13.532819866285527"><ele>50.00000000000001</ele><time>2026-05-05T16:18:48Z</time></trkpt><trkpt lat="43.35600122638908" lon="13.532702436363904"><ele>50.0</ele><time>2026-05-05T16:18:51Z</time></trkpt><trkpt lat="43.355998052480125" lon="13.532595228760025"><ele>50.0</ele><time>2026-05-05T16:18:54Z</time></trkpt><trkpt lat="43.355995771426784" lon="13.532494092588692"><ele>50.0</ele><time>2026-05-05T16:18:56Z</time></trkpt><trkpt lat="43.35599946853259" lon="13.532381865871312"><ele>50.00000000000001</ele><time>2026-05-05T16:18:59Z</time></trkpt><trkpt lat="43.356001228972474" lon="13.532262781213833"><ele>50.0</ele><time>2026-05-05T16:19:02Z</time></trkpt><trkpt lat="43.35599809595548" lon="13.532149869063108"><ele>50.00000000000001</ele><time>2026-05-05T16:19:05Z</time></trkpt><trkpt lat="43.35598864294102" lon="13.532018317605912"><ele>50.0</ele><time>2026-05-05T16:19:08Z</time></trkpt><trkpt lat="43.35599873455031" lon="13.531901143942582"><ele>50.0</ele><time>2026-05-05T16:19:11Z</time></trkpt><trkpt lat="43.35599956147631" lon="13.531785467522372"><ele>50.0</ele><time>2026-05-05T16:19:14Z</time></trkpt><trkpt lat="43.35599348938165" lon="13.53165852805526"><ele>50.00000000000001</ele><time>2026-05-05T16:19:17Z</time></trkpt><trkpt lat="43.355994976025805" lon="13.531544250147844"><ele>50.0</ele><time>2026-05-05T16:19:20Z</time></trkpt><trkpt lat="43.355992951592235" lon="13.531427582716562"><ele>50.00000000000001</ele><time>2026-05-05T16:19:23Z</time></trkpt><trkpt lat="43.35598777550037" lon="13.53130687507233"><ele>50.0</ele><time>2026-05-05T16:19:26Z</time></trkpt><trkpt lat="43.35597738063644" lon="13.531183479022003"><ele>50.0</ele><time>2026-05-05T16:19:29Z</time></trkpt><trkpt lat="43.3559567961375" lon="13.531061504200231"><ele>50.0</ele><time>2026-05-05T16:19:32Z</time></trkpt><trkpt lat="43.35595206967923" lon="13.530948812382936"><ele>50.00000000000001</ele><time>2026-05-05T16:19:35Z</time></trkpt><trkpt lat="43.35594483042768" lon="13.530824209525797"><ele>50.0</ele><time>2026-05-05T16:19:38Z</time></trkpt><trkpt lat="43.35593396214236" lon="13.530701145523066"><ele>50.00000000000001</ele><time>2026-05-05T16:19:41Z</time></trkpt><trkpt lat="43.35592124040576" lon="13.530594118768622"><ele>50.0</ele><time>2026-05-05T16:19:44Z</time></trkpt><trkpt lat="43.355892993055924" lon="13.530477800039307"><ele>50.0</ele><time>2026-05-05T16:19:46.999Z</time></trkpt><trkpt lat="43.355873359008754" lon="13.530361184813573"><ele>50.0</ele><time>2026-05-05T16:19:49.999Z</time></trkpt><trkpt lat="43.355860709532024" lon="13.53027534930076"><ele>50.00000000000001</ele><time>2026-05-05T16:19:52Z</time></trkpt><trkpt lat="43.35584762467129" lon="13.530162032576769"><ele>50.0</ele><time>2026-05-05T16:19:55Z</time></trkpt><trkpt lat="43.35583326629421" lon="13.530038961886305"><ele>50.0</ele><time>2026-05-05T16:19:58Z</time></trkpt><trkpt lat="43.355811023687465" lon="13.529921304666827"><ele>50.0</ele><time>2026-05-05T16:20:01Z</time></trkpt><trkpt lat="43.355793660241595" lon="13.529788747565705"><ele>50.0</ele><time>2026-05-05T16:20:04Z</time></trkpt><trkpt lat="43.35578996217263" lon="13.529666136354223"><ele>50.0</ele><time>2026-05-05T16:20:07Z</time></trkpt><trkpt lat="43.355776792620766" lon="13.52954056077124"><ele>50.0</ele><time>2026-05-05T16:20:10Z</time></trkpt><trkpt lat="43.355753778263164" lon="13.529408106993442"><ele>50.00000000000001</ele><time>2026-05-05T16:20:13Z</time></trkpt><trkpt lat="43.35574079755801" lon="13.529291493740274"><ele>50.0</ele><time>2026-05-05T16:20:16Z</time></trkpt><trkpt lat="43.355726674305224" lon="13.529204767092272"><ele>50.0</ele><time>2026-05-05T16:20:18Z</time></trkpt><trkpt lat="43.35572377183454" lon="13.529116042310681"><ele>50.0</ele><time>2026-05-05T16:20:20Z</time></trkpt><trkpt lat="43.35571193727654" lon="13.52901005454197"><ele>50.00000000000001</ele><time>2026-05-05T16:20:23Z</time></trkpt><trkpt lat="43.355703983151564" lon="13.528881945055602"><ele>50.0</ele><time>2026-05-05T16:20:26Z</time></trkpt><trkpt lat="43.35568730782733" lon="13.52876493982299"><ele>49.833333333333336</ele><time>2026-05-05T16:20:29Z</time></trkpt><trkpt lat="43.355682520829795" lon="13.52867393981899"><ele>49.66666666666667</ele><time>2026-05-05T16:20:31Z</time></trkpt><trkpt lat="43.35566908349321" lon="13.528553776138697"><ele>49.5</ele><time>2026-05-05T16:20:34Z</time></trkpt><trkpt lat="43.35564973276904" lon="13.528431373596929"><ele>49.33333333333333</ele><time>2026-05-05T16:20:37Z</time></trkpt><trkpt lat="43.35565385581918" lon="13.528306710225976"><ele>49.166666666666664</ele><time>2026-05-05T16:20:40Z</time></trkpt><trkpt lat="43.35564316975329" lon="13.528186512659301"><ele>49.0</ele><time>2026-05-05T16:20:43Z</time></trkpt><trkpt lat="43.35561211858432" lon="13.528099799655061"><ele>48.99999999999999</ele><time>2026-05-05T16:20:45Z</time></trkpt><trkpt lat="43.35561963622688" lon="13.527983222737756"><ele>49.0</ele><time>2026-05-05T16:20:48Z</time></trkpt><trkpt lat="43.3556048061658" lon="13.527890633057856"><ele>49.0</ele><time>2026-05-05T16:20:50Z</time></trkpt><trkpt lat="43.35558753312689" lon="13.52777526817639"><ele>49.0</ele><time>2026-05-05T16:20:53Z</time></trkpt><trkpt lat="43.35555072854877" lon="13.527652408100757"><ele>48.99999999999999</ele><time>2026-05-05T16:20:56Z</time></trkpt><trkpt lat="43.35555426878587" lon="13.527532243123687"><ele>49.0</ele><time>2026-05-05T16:20:59Z</time></trkpt><trkpt lat="43.35553044089411" lon="13.527403017425986"><ele>49.166666666666664</ele><time>2026-05-05T16:21:02Z</time></trkpt><trkpt lat="43.35553347524771" lon="13.527283482277241"><ele>49.33333333333333</ele><time>2026-05-05T16:21:05Z</time></trkpt><trkpt lat="43.355528241030065" lon="13.527195384756435"><ele>49.5</ele><time>2026-05-05T16:21:07Z</time></trkpt><trkpt lat="43.35552640374227" lon="13.527073338753675"><ele>49.66666666666667</ele><time>2026-05-05T16:21:10Z</time></trkpt><trkpt lat="43.35550974300378" lon="13.52695937993756"><ele>49.833333333333336</ele><time>2026-05-05T16:21:13Z</time></trkpt><trkpt lat="43.35549000341723" lon="13.526846878481875"><ele>50.0</ele><time>2026-05-05T16:21:16Z</time></trkpt><trkpt lat="43.35547884626011" lon="13.526725174996153"><ele>50.142857142857146</ele><time>2026-05-05T16:21:19Z</time></trkpt><trkpt lat="43.35546595398832" lon="13.526600865485822"><ele>50.285714285714285</ele><time>2026-05-05T16:21:22Z</time></trkpt><trkpt lat="43.35544952515214" lon="13.526495227799996"><ele>50.42857142857143</ele><time>2026-05-05T16:21:25Z</time></trkpt><trkpt lat="43.355442377119026" lon="13.52640622291233"><ele>50.57142857142857</ele><time>2026-05-05T16:21:27Z</time></trkpt><trkpt lat="43.3554424582345" lon="13.526318571090162"><ele>50.714285714285715</ele><time>2026-05-05T16:21:29Z</time></trkpt><trkpt lat="43.35542378117916" lon="13.52623499554634"><ele>50.85714285714286</ele><time>2026-05-05T16:21:31Z</time></trkpt><trkpt lat="43.35541665141012" lon="13.526142259838032"><ele>51.0</ele><time>2026-05-05T16:21:33Z</time></trkpt><trkpt lat="43.35540378742187" lon="13.526034882179616"><ele>51.4</ele><time>2026-05-05T16:21:36Z</time></trkpt><trkpt lat="43.35539582939077" lon="13.525923734823927"><ele>51.8</ele><time>2026-05-05T16:21:39Z</time></trkpt><trkpt lat="43.355373217988124" lon="13.525806081507147"><ele>52.199999999999996</ele><time>2026-05-05T16:21:42Z</time></trkpt><trkpt lat="43.35536956592871" lon="13.525680030243784"><ele>52.599999999999994</ele><time>2026-05-05T16:21:44.999Z</time></trkpt><trkpt lat="43.355359887808696" lon="13.525554013192016"><ele>53.0</ele><time>2026-05-05T16:21:47.999Z</time></trkpt><trkpt lat="43.355341248009864" lon="13.525419576116091"><ele>52.85714285714286</ele><time>2026-05-05T16:21:50.999Z</time></trkpt><trkpt lat="43.35533164936903" lon="13.525320328476623"><ele>52.71428571428571</ele><time>2026-05-05T16:21:53.999Z</time></trkpt><trkpt lat="43.35531324714037" lon="13.525225392357056"><ele>52.57142857142857</ele><time>2026-05-05T16:21:55.999Z</time></trkpt><trkpt lat="43.35529506582265" lon="13.525120366078982"><ele>52.42857142857143</ele><time>2026-05-05T16:21:58Z</time></trkpt><trkpt lat="43.35529184215355" lon="13.525033224156834"><ele>52.28571428571429</ele><time>2026-05-05T16:22:00Z</time></trkpt><trkpt lat="43.355289980904956" lon="13.524918482414488"><ele>52.14285714285714</ele><time>2026-05-05T16:22:03Z</time></trkpt><trkpt lat="43.355275669046904" lon="13.52482740466862"><ele>52.0</ele><time>2026-05-05T16:22:05Z</time></trkpt><trkpt lat="43.355271762297576" lon="13.524740874777423"><ele>52.0</ele><time>2026-05-05T16:22:07Z</time></trkpt><trkpt lat="43.355261995890004" lon="13.524652222828959"><ele>52.0</ele><time>2026-05-05T16:22:09Z</time></trkpt><trkpt lat="43.355245545626985" lon="13.52453955111763"><ele>52.0</ele><time>2026-05-05T16:22:12Z</time></trkpt><trkpt lat="43.35525197888486" lon="13.524451704557231"><ele>52.0</ele><time>2026-05-05T16:22:14Z</time></trkpt><trkpt lat="43.3553036976378" lon="13.524375368557621"><ele>52.0</ele><time>2026-05-05T16:22:16Z</time></trkpt><trkpt lat="43.35538267442887" lon="13.524361882669737"><ele>52.0</ele><time>2026-05-05T16:22:18Z</time></trkpt><trkpt lat="43.35544671474194" lon="13.524354554020082"><ele>52.0</ele><time>2026-05-05T16:22:20Z</time></trkpt><trkpt lat="43.35554023003348" lon="13.524341331833483"><ele>51.49999999999999</ele><time>2026-05-05T16:22:23Z</time></trkpt><trkpt lat="43.355599285880544" lon="13.524307399009924"><ele>51.0</ele><time>2026-05-05T16:22:25Z</time></trkpt><trkpt lat="43.35566225264424" lon="13.52432559380708"><ele>50.5</ele><time>2026-05-05T16:22:27Z</time></trkpt><trkpt lat="43.35572977768905" lon="13.524319684651696"><ele>50.0</ele><time>2026-05-05T16:22:29Z</time></trkpt><trkpt lat="43.3558236280014" lon="13.524300662826446"><ele>49.49999999999999</ele><time>2026-05-05T16:22:32Z</time></trkpt><trkpt lat="43.355909511681965" lon="13.524294563276309"><ele>49.0</ele><time>2026-05-05T16:22:35Z</time></trkpt><trkpt lat="43.355994990669664" lon="13.524291931165902"><ele>48.99999999999999</ele><time>2026-05-05T16:22:38Z</time></trkpt><trkpt lat="43.356077324046325" lon="13.524274719420456"><ele>49.0</ele><time>2026-05-05T16:22:41Z</time></trkpt><trkpt lat="43.35616873296476" lon="13.524258815114466"><ele>49.0</ele><time>2026-05-05T16:22:44Z</time></trkpt><trkpt lat="43.35623175583657" lon="13.524260765725403"><ele>49.0</ele><time>2026-05-05T16:22:46Z</time></trkpt><trkpt lat="43.35632521317723" lon="13.524240289021275"><ele>48.99999999999999</ele><time>2026-05-05T16:22:49Z</time></trkpt><trkpt lat="43.356411864853065" lon="13.524203307839256"><ele>49.0</ele><time>2026-05-05T16:22:52Z</time></trkpt><trkpt lat="43.35647497294726" lon="13.524197989776797"><ele>49.166666666666664</ele><time>2026-05-05T16:22:54Z</time></trkpt><trkpt lat="43.35656370000847" lon="13.524190922237345"><ele>49.33333333333333</ele><time>2026-05-05T16:22:57Z</time></trkpt><trkpt lat="43.35663579333194" lon="13.52417353885436"><ele>49.5</ele><time>2026-05-05T16:22:59Z</time></trkpt><trkpt lat="43.35671761257204" lon="13.5241694820944"><ele>49.66666666666667</ele><time>2026-05-05T16:23:02Z</time></trkpt><trkpt lat="43.35679898032912" lon="13.52415266271173"><ele>49.833333333333336</ele><time>2026-05-05T16:23:05Z</time></trkpt><trkpt lat="43.3568619628609" lon="13.524153922130589"><ele>50.0</ele><time>2026-05-05T16:23:07Z</time></trkpt><trkpt lat="43.356925171494716" lon="13.524137620684558"><ele>50.00000000000001</ele><time>2026-05-05T16:23:09Z</time></trkpt><trkpt lat="43.35701430364284" lon="13.524139751602458"><ele>50.0</ele><time>2026-05-05T16:23:12Z</time></trkpt><trkpt lat="43.357097759958386" lon="13.524132784746195"><ele>50.0</ele><time>2026-05-05T16:23:15Z</time></trkpt><trkpt lat="43.35718937119154" lon="13.524120493061549"><ele>50.0</ele><time>2026-05-05T16:23:18Z</time></trkpt><trkpt lat="43.357273293588065" lon="13.52409232094558"><ele>50.00000000000001</ele><time>2026-05-05T16:23:21Z</time></trkpt><trkpt lat="43.35733849344997" lon="13.52410445841147"><ele>50.0</ele><time>2026-05-05T16:23:23Z</time></trkpt><trkpt lat="43.35742521618068" lon="13.524093454876716"><ele>50.16666666666667</ele><time>2026-05-05T16:23:26Z</time></trkpt><trkpt lat="43.357493043334635" lon="13.524109954123475"><ele>50.333333333333336</ele><time>2026-05-05T16:23:28Z</time></trkpt><trkpt lat="43.35756217758701" lon="13.524129940125519"><ele>50.5</ele><time>2026-05-05T16:23:30Z</time></trkpt><trkpt lat="43.35764087837526" lon="13.5241417539013"><ele>50.66666666666667</ele><time>2026-05-05T16:23:33Z</time></trkpt><trkpt lat="43.3577029130051" lon="13.524156498490688"><ele>50.833333333333336</ele><time>2026-05-05T16:23:35Z</time></trkpt><trkpt lat="43.35779135390025" lon="13.52416385601587"><ele>51.0</ele><time>2026-05-05T16:23:38Z</time></trkpt><trkpt lat="43.357891681215534" lon="13.524172946593511"><ele>51.0</ele><time>2026-05-05T16:23:41Z</time></trkpt><trkpt lat="43.357963701713544" lon="13.524208628555341"><ele>51.0</ele><time>2026-05-05T16:23:44Z</time></trkpt><trkpt lat="43.358030537788494" lon="13.524234672081416"><ele>51.0</ele><time>2026-05-05T16:23:45.999Z</time></trkpt><trkpt lat="43.35810974654461" lon="13.524281171018018"><ele>51.0</ele><time>2026-05-05T16:23:48.999Z</time></trkpt><trkpt lat="43.35819033925542" lon="13.524343454578402"><ele>51.0</ele><time>2026-05-05T16:23:51.999Z</time></trkpt><trkpt lat="43.35825477663492" lon="13.524390075680566"><ele>51.0</ele><time>2026-05-05T16:23:53.999Z</time></trkpt><trkpt lat="43.35833447235989" lon="13.524455020025655"><ele>50.833333333333336</ele><time>2026-05-05T16:23:56.999Z</time></trkpt><trkpt lat="43.3584225262383" lon="13.524499726992413"><ele>50.66666666666667</ele><time>2026-05-05T16:23:59.999Z</time></trkpt><trkpt lat="43.3585029582565" lon="13.524542308138733"><ele>50.5</ele><time>2026-05-05T16:24:02.999Z</time></trkpt><trkpt lat="43.3586015103089" lon="13.524550897720923"><ele>50.333333333333336</ele><time>2026-05-05T16:24:06Z</time></trkpt><trkpt lat="43.358673116198055" lon="13.524508568956396"><ele>50.16666666666667</ele><time>2026-05-05T16:24:09Z</time></trkpt><trkpt lat="43.35875519882224" lon="13.524469562442157"><ele>50.0</ele><time>2026-05-05T16:24:12Z</time></trkpt><trkpt lat="43.35880835113606" lon="13.524375804979714"><ele>50.0</ele><time>2026-05-05T16:24:15Z</time></trkpt><trkpt lat="43.35888856917293" lon="13.524316809633389"><ele>50.0</ele><time>2026-05-05T16:24:18Z</time></trkpt><trkpt lat="43.3589716800285" lon="13.524259639527626"><ele>50.0</ele><time>2026-05-05T16:24:21Z</time></trkpt><trkpt lat="43.35904609030217" lon="13.524221689303474"><ele>50.0</ele><time>2026-05-05T16:24:24Z</time></trkpt><trkpt lat="43.35913708346014" lon="13.524181846644723"><ele>50.0</ele><time>2026-05-05T16:24:27Z</time></trkpt><trkpt lat="43.35922811400258" lon="13.52419808063273"><ele>50.00000000000001</ele><time>2026-05-05T16:24:30Z</time></trkpt><trkpt lat="43.3593105031259" lon="13.524201385184412"><ele>50.0</ele><time>2026-05-05T16:24:33Z</time></trkpt><trkpt lat="43.359373748987274" lon="13.524213200255"><ele>50.0</ele><time>2026-05-05T16:24:35Z</time></trkpt><trkpt lat="43.359459813797606" lon="13.524200310568398"><ele>50.0</ele><time>2026-05-05T16:24:38Z</time></trkpt><trkpt lat="43.35954787752921" lon="13.524243127542837"><ele>50.00000000000001</ele><time>2026-05-05T16:24:41Z</time></trkpt><trkpt lat="43.359630309575415" lon="13.524230476870589"><ele>50.0</ele><time>2026-05-05T16:24:44Z</time></trkpt><trkpt lat="43.35970800284348" lon="13.524257245351"><ele>49.66666666666667</ele><time>2026-05-05T16:24:47Z</time></trkpt><trkpt lat="43.35979597979457" lon="13.524275159849578"><ele>49.333333333333336</ele><time>2026-05-05T16:24:50Z</time></trkpt><trkpt lat="43.359881156382" lon="13.524299413423813"><ele>49.0</ele><time>2026-05-05T16:24:53Z</time></trkpt><trkpt lat="43.35996554495941" lon="13.524314733256452"><ele>48.66666666666667</ele><time>2026-05-05T16:24:56Z</time></trkpt><trkpt lat="43.360031949884416" lon="13.524322818844851"><ele>48.333333333333336</ele><time>2026-05-05T16:24:58Z</time></trkpt><trkpt lat="43.36012182360853" lon="13.524323085031993"><ele>48.0</ele><time>2026-05-05T16:25:01Z</time></trkpt><trkpt lat="43.360202549438675" lon="13.524341664212884"><ele>48.0</ele><time>2026-05-05T16:25:04Z</time></trkpt><trkpt lat="43.36028763820212" lon="13.52436042167529"><ele>48.0</ele><time>2026-05-05T16:25:07Z</time></trkpt><trkpt lat="43.36035029493021" lon="13.524388891277917"><ele>48.0</ele><time>2026-05-05T16:25:09Z</time></trkpt><trkpt lat="43.36040635287752" lon="13.524433916472082"><ele>48.0</ele><time>2026-05-05T16:25:11Z</time></trkpt><trkpt lat="43.36045806696781" lon="13.524517731374068"><ele>48.0</ele><time>2026-05-05T16:25:14Z</time></trkpt><trkpt lat="43.36049515657521" lon="13.52459313326839"><ele>48.0</ele><time>2026-05-05T16:25:16Z</time></trkpt><trkpt lat="43.36053418982938" lon="13.524699527485973"><ele>48.333333333333336</ele><time>2026-05-05T16:25:19Z</time></trkpt><trkpt lat="43.36055809592102" lon="13.524805032890974"><ele>48.66666666666667</ele><time>2026-05-05T16:25:22Z</time></trkpt><trkpt lat="43.36058151642528" lon="13.524894632967332"><ele>49.0</ele><time>2026-05-05T16:25:24Z</time></trkpt><trkpt lat="43.360611097643" lon="13.525011781730843"><ele>49.333333333333336</ele><time>2026-05-05T16:25:27Z</time></trkpt><trkpt lat="43.36065280477632" lon="13.525122061808108"><ele>49.66666666666667</ele><time>2026-05-05T16:25:30Z</time></trkpt><trkpt lat="43.36069338796412" lon="13.525235930768334"><ele>50.0</ele><time>2026-05-05T16:25:32.999Z</time></trkpt><trkpt lat="43.36074959311033" lon="13.52534899341347"><ele>49.833333333333336</ele><time>2026-05-05T16:25:35.999Z</time></trkpt><trkpt lat="43.36075508206723" lon="13.525435896656377"><ele>49.66666666666667</ele><time>2026-05-05T16:25:37.999Z</time></trkpt><trkpt lat="43.360780572170974" lon="13.525557309045078"><ele>49.5</ele><time>2026-05-05T16:25:40.999Z</time></trkpt><trkpt lat="43.36080751026163" lon="13.525667120601529"><ele>49.33333333333333</ele><time>2026-05-05T16:25:43.999Z</time></trkpt><trkpt lat="43.36084481836777" lon="13.52577895700023"><ele>49.166666666666664</ele><time>2026-05-05T16:25:46.999Z</time></trkpt><trkpt lat="43.36087596951532" lon="13.525891712858954"><ele>49.0</ele><time>2026-05-05T16:25:49.999Z</time></trkpt><trkpt lat="43.3609073898757" lon="13.526004036142899"><ele>48.99999999999999</ele><time>2026-05-05T16:25:52.999Z</time></trkpt><trkpt lat="43.36093465288234" lon="13.526119889043112"><ele>49.0</ele><time>2026-05-05T16:25:55.999Z</time></trkpt><trkpt lat="43.36095818309558" lon="13.526204280495449"><ele>49.0</ele><time>2026-05-05T16:25:57.999Z</time></trkpt><trkpt lat="43.36098448712667" lon="13.526313879107267"><ele>49.0</ele><time>2026-05-05T16:26:00.999Z</time></trkpt><trkpt lat="43.36101604659969" lon="13.52639292384765"><ele>48.99999999999999</ele><time>2026-05-05T16:26:02.999Z</time></trkpt><trkpt lat="43.36104091198126" lon="13.526512324594409"><ele>49.0</ele><time>2026-05-05T16:26:05.999Z</time></trkpt><trkpt lat="43.361077453424315" lon="13.52663184305694"><ele>48.99999999999999</ele><time>2026-05-05T16:26:08.999Z</time></trkpt><trkpt lat="43.36109544805572" lon="13.526715575847964"><ele>49.0</ele><time>2026-05-05T16:26:11Z</time></trkpt><trkpt lat="43.361125759235236" lon="13.52683315987565"><ele>49.0</ele><time>2026-05-05T16:26:14Z</time></trkpt><trkpt lat="43.36116453079384" lon="13.526953229613474"><ele>49.0</ele><time>2026-05-05T16:26:17Z</time></trkpt><trkpt lat="43.36119024237871" lon="13.527071392358582"><ele>48.99999999999999</ele><time>2026-05-05T16:26:20Z</time></trkpt><trkpt lat="43.36121280772353" lon="13.527185887748708"><ele>49.0</ele><time>2026-05-05T16:26:23Z</time></trkpt><trkpt lat="43.36123594031454" lon="13.527272172575318"><ele>48.666666666666664</ele><time>2026-05-05T16:26:25Z</time></trkpt><trkpt lat="43.361252325939354" lon="13.527359989001335"><ele>48.33333333333333</ele><time>2026-05-05T16:26:27Z</time></trkpt><trkpt lat="43.361258377952026" lon="13.527482460082025"><ele>48.0</ele><time>2026-05-05T16:26:30Z</time></trkpt><trkpt lat="43.36126445211379" lon="13.527581793071386"><ele>47.666666666666664</ele><time>2026-05-05T16:26:32Z</time></trkpt><trkpt lat="43.36127463888616" lon="13.527667777683684"><ele>47.33333333333333</ele><time>2026-05-05T16:26:34Z</time></trkpt><trkpt lat="43.361290399067094" lon="13.527786491948598"><ele>47.0</ele><time>2026-05-05T16:26:37Z</time></trkpt><trkpt lat="43.36131358908478" lon="13.527903506813283"><ele>47.0</ele><time>2026-05-05T16:26:40Z</time></trkpt><trkpt lat="43.36134633968308" lon="13.528010986733573"><ele>47.0</ele><time>2026-05-05T16:26:43Z</time></trkpt><trkpt lat="43.361408366112414" lon="13.52810183497794"><ele>47.0</ele><time>2026-05-05T16:26:46Z</time></trkpt><trkpt lat="43.36147392390975" lon="13.528125966370041"><ele>47.0</ele><time>2026-05-05T16:26:48Z</time></trkpt><trkpt lat="43.36154299444677" lon="13.528111316797627"><ele>47.0</ele><time>2026-05-05T16:26:51Z</time></trkpt><trkpt lat="43.361607989201694" lon="13.52806740608367"><ele>47.0</ele><time>2026-05-05T16:26:53Z</time></trkpt><trkpt lat="43.36169870996649" lon="13.528022925638362"><ele>47.0</ele><time>2026-05-05T16:26:56Z</time></trkpt><trkpt lat="43.3617604970762" lon="13.52797330033971"><ele>47.0</ele><time>2026-05-05T16:26:58Z</time></trkpt><trkpt lat="43.361840458065124" lon="13.527912210884738"><ele>47.0</ele><time>2026-05-05T16:27:01Z</time></trkpt><trkpt lat="43.36192891555385" lon="13.527873142778779"><ele>47.0</ele><time>2026-05-05T16:27:04Z</time></trkpt><trkpt lat="43.36199242819157" lon="13.527868810848055"><ele>47.0</ele><time>2026-05-05T16:27:06Z</time></trkpt><trkpt lat="43.36205982967672" lon="13.52791330540931"><ele>47.0</ele><time>2026-05-05T16:27:08Z</time></trkpt><trkpt lat="43.36210081099565" lon="13.527992891177083"><ele>47.0</ele><time>2026-05-05T16:27:10Z</time></trkpt><trkpt lat="43.362129205954865" lon="13.528078639993367"><ele>47.0</ele><time>2026-05-05T16:27:12Z</time></trkpt><trkpt lat="43.36217508949561" lon="13.528188157330368"><ele>47.0</ele><time>2026-05-05T16:27:15Z</time></trkpt><trkpt lat="43.36222430323325" lon="13.528288402719797"><ele>47.0</ele><time>2026-05-05T16:27:18Z</time></trkpt><trkpt lat="43.36225987787694" lon="13.528394189435243"><ele>47.0</ele><time>2026-05-05T16:27:21Z</time></trkpt><trkpt lat="43.36229415046274" lon="13.528470523631402"><ele>47.0</ele><time>2026-05-05T16:27:23Z</time></trkpt><trkpt lat="43.36234039240041" lon="13.52857827423072"><ele>47.0</ele><time>2026-05-05T16:27:25.999Z</time></trkpt><trkpt lat="43.36238876108266" lon="13.528678376526626"><ele>47.0</ele><time>2026-05-05T16:27:28.999Z</time></trkpt><trkpt lat="43.36243166301903" lon="13.528782668301895"><ele>47.0</ele><time>2026-05-05T16:27:31.999Z</time></trkpt><trkpt lat="43.36248031885255" lon="13.52888914991377"><ele>47.0</ele><time>2026-05-05T16:27:34.999Z</time></trkpt><trkpt lat="43.36253175776998" lon="13.528989435323924"><ele>47.0</ele><time>2026-05-05T16:27:37.999Z</time></trkpt><trkpt lat="43.3625757439435" lon="13.529094971087783"><ele>47.0</ele><time>2026-05-05T16:27:40.999Z</time></trkpt><trkpt lat="43.362602664413515" lon="13.529173842693991"><ele>47.0</ele><time>2026-05-05T16:27:42.999Z</time></trkpt><trkpt lat="43.36264729155098" lon="13.529272744706363"><ele>47.0</ele><time>2026-05-05T16:27:45.999Z</time></trkpt><trkpt lat="43.36269285996537" lon="13.529368232728949"><ele>47.0</ele><time>2026-05-05T16:27:48.999Z</time></trkpt><trkpt lat="43.36273466536489" lon="13.529470268710377"><ele>47.0</ele><time>2026-05-05T16:27:51.999Z</time></trkpt><trkpt lat="43.36278497145545" lon="13.529579278114216"><ele>47.0</ele><time>2026-05-05T16:27:54.999Z</time></trkpt><trkpt lat="43.36281952071842" lon="13.529654991634755"><ele>47.0</ele><time>2026-05-05T16:27:56.999Z</time></trkpt><trkpt lat="43.3628794086615" lon="13.529754953218058"><ele>47.0</ele><time>2026-05-05T16:27:59.999Z</time></trkpt><trkpt lat="43.3629159507413" lon="13.529863831846031"><ele>47.0</ele><time>2026-05-05T16:28:02.999Z</time></trkpt><trkpt lat="43.362952443604904" lon="13.52993704066613"><ele>47.0</ele><time>2026-05-05T16:28:04.999Z</time></trkpt><trkpt lat="43.36298907320041" lon="13.530011439932252"><ele>47.0</ele><time>2026-05-05T16:28:06.999Z</time></trkpt><trkpt lat="43.36303418672693" lon="13.530115488974642"><ele>47.0</ele><time>2026-05-05T16:28:09.999Z</time></trkpt><trkpt lat="43.36307088903518" lon="13.530189853589416"><ele>47.0</ele><time>2026-05-05T16:28:11.999Z</time></trkpt><trkpt lat="43.36311338790957" lon="13.530285765424969"><ele>47.0</ele><time>2026-05-05T16:28:14.999Z</time></trkpt><trkpt lat="43.36314297312008" lon="13.5303679911176"><ele>47.0</ele><time>2026-05-05T16:28:17Z</time></trkpt><trkpt lat="43.363180117596386" lon="13.530469397125371"><ele>47.0</ele><time>2026-05-05T16:28:20Z</time></trkpt><trkpt lat="43.36322799802875" lon="13.53057552085213"><ele>47.0</ele><time>2026-05-05T16:28:23Z</time></trkpt><trkpt lat="43.36327018373774" lon="13.530682720010223"><ele>47.0</ele><time>2026-05-05T16:28:26Z</time></trkpt><trkpt lat="43.363314175574736" lon="13.530789735771682"><ele>47.0</ele><time>2026-05-05T16:28:29Z</time></trkpt><trkpt lat="43.36335886118399" lon="13.530887754927095"><ele>46.83333333333333</ele><time>2026-05-05T16:28:32Z</time></trkpt><trkpt lat="43.36338660632118" lon="13.530965776675702"><ele>46.666666666666664</ele><time>2026-05-05T16:28:34Z</time></trkpt><trkpt lat="43.36342977429466" lon="13.531074250683337"><ele>46.5</ele><time>2026-05-05T16:28:37Z</time></trkpt><trkpt lat="43.363467583552385" lon="13.53114860253049"><ele>46.333333333333336</ele><time>2026-05-05T16:28:39Z</time></trkpt><trkpt lat="43.3635010643863" lon="13.53122194086817"><ele>46.16666666666667</ele><time>2026-05-05T16:28:41Z</time></trkpt><trkpt lat="43.36354037390988" lon="13.531328317651823"><ele>46.0</ele><time>2026-05-05T16:28:44Z</time></trkpt><trkpt lat="43.36358143312215" lon="13.531437448451246"><ele>46.0</ele><time>2026-05-05T16:28:47Z</time></trkpt><trkpt lat="43.36362069613909" lon="13.531542291184692"><ele>46.0</ele><time>2026-05-05T16:28:50Z</time></trkpt><trkpt lat="43.36366309592093" lon="13.531641684824395"><ele>46.0</ele><time>2026-05-05T16:28:53Z</time></trkpt><trkpt lat="43.36370063037944" lon="13.531716789398208"><ele>46.0</ele><time>2026-05-05T16:28:55Z</time></trkpt><trkpt lat="43.36375469416355" lon="13.531820706568912"><ele>46.0</ele><time>2026-05-05T16:28:58Z</time></trkpt><trkpt lat="43.36378995091537" lon="13.531913050924775"><ele>46.0</ele><time>2026-05-05T16:29:01Z</time></trkpt><trkpt lat="43.36382302225753" lon="13.531997888955775"><ele>46.16666666666667</ele><time>2026-05-05T16:29:03Z</time></trkpt><trkpt lat="43.36386402428043" lon="13.532105865186285"><ele>46.333333333333336</ele><time>2026-05-05T16:29:06Z</time></trkpt><trkpt lat="43.36390568965535" lon="13.532219098632103"><ele>46.5</ele><time>2026-05-05T16:29:09Z</time></trkpt><trkpt lat="43.36395874411914" lon="13.532322185886214"><ele>46.666666666666664</ele><time>2026-05-05T16:29:12Z</time></trkpt><trkpt lat="43.36399278346803" lon="13.532397817600447"><ele>46.83333333333333</ele><time>2026-05-05T16:29:14Z</time></trkpt><trkpt lat="43.36403383966627" lon="13.532504880138331"><ele>47.0</ele><time>2026-05-05T16:29:17Z</time></trkpt><trkpt lat="43.36407280566801" lon="13.532608985817738"><ele>47.0</ele><time>2026-05-05T16:29:20Z</time></trkpt><trkpt lat="43.36410287628414" lon="13.532690524623881"><ele>47.0</ele><time>2026-05-05T16:29:22Z</time></trkpt><trkpt lat="43.36413785345182" lon="13.532763513015567"><ele>47.0</ele><time>2026-05-05T16:29:24Z</time></trkpt><trkpt lat="43.36418622242187" lon="13.532866232711017"><ele>47.0</ele><time>2026-05-05T16:29:26.999Z</time></trkpt><trkpt lat="43.36421317827898" lon="13.532945114629566"><ele>47.0</ele><time>2026-05-05T16:29:28.999Z</time></trkpt><trkpt lat="43.364264520191085" lon="13.533048293547694"><ele>47.0</ele><time>2026-05-05T16:29:31.999Z</time></trkpt><trkpt lat="43.36432074847585" lon="13.533154277836546"><ele>47.0</ele><time>2026-05-05T16:29:34.999Z</time></trkpt><trkpt lat="43.36437002432648" lon="13.533261919069714"><ele>47.0</ele><time>2026-05-05T16:29:37.999Z</time></trkpt><trkpt lat="43.36441038526027" lon="13.533368697215424"><ele>47.0</ele><time>2026-05-05T16:29:40.999Z</time></trkpt><trkpt lat="43.36445063005677" lon="13.533472351687017"><ele>47.0</ele><time>2026-05-05T16:29:43.999Z</time></trkpt><trkpt lat="43.36449560476449" lon="13.53357519571737"><ele>47.0</ele><time>2026-05-05T16:29:46.999Z</time></trkpt><trkpt lat="43.3645364053857" lon="13.533677000343753"><ele>47.0</ele><time>2026-05-05T16:29:49.999Z</time></trkpt><trkpt lat="43.364581562835355" lon="13.533773179615915"><ele>46.83333333333333</ele><time>2026-05-05T16:29:52.999Z</time></trkpt><trkpt lat="43.364643813490716" lon="13.533877465113088"><ele>46.666666666666664</ele><time>2026-05-05T16:29:55.999Z</time></trkpt><trkpt lat="43.36467499214467" lon="13.534004209199402"><ele>46.5</ele><time>2026-05-05T16:29:58.999Z</time></trkpt><trkpt lat="43.36471060010602" lon="13.53411125612113"><ele>46.333333333333336</ele><time>2026-05-05T16:30:01.999Z</time></trkpt><trkpt lat="43.3647155684471" lon="13.53423370183488"><ele>46.16666666666667</ele><time>2026-05-05T16:30:04.999Z</time></trkpt><trkpt lat="43.364726431126684" lon="13.534320411805778"><ele>46.0</ele><time>2026-05-05T16:30:06.999Z</time></trkpt><trkpt lat="43.36471234342855" lon="13.534439877245314"><ele>45.8</ele><time>2026-05-05T16:30:09.999Z</time></trkpt><trkpt lat="43.364691408760656" lon="13.534560009841963"><ele>45.599999999999994</ele><time>2026-05-05T16:30:12.999Z</time></trkpt><trkpt lat="43.36465289110817" lon="13.534681287963975"><ele>45.4</ele><time>2026-05-05T16:30:15.999Z</time></trkpt><trkpt lat="43.36462552967836" lon="13.53480883124841"><ele>45.2</ele><time>2026-05-05T16:30:18.999Z</time></trkpt><trkpt lat="43.3646118065926" lon="13.534929850410244"><ele>45.0</ele><time>2026-05-05T16:30:22Z</time></trkpt><trkpt lat="43.36456898973491" lon="13.53503518685626"><ele>45.0</ele><time>2026-05-05T16:30:25Z</time></trkpt><trkpt lat="43.36450706892569" lon="13.535059655253464"><ele>45.0</ele><time>2026-05-05T16:30:27Z</time></trkpt><trkpt lat="43.36444439649918" lon="13.535031767353402"><ele>45.0</ele><time>2026-05-05T16:30:29Z</time></trkpt><trkpt lat="43.36438296285956" lon="13.535006244144805"><ele>45.0</ele><time>2026-05-05T16:30:31Z</time></trkpt><trkpt lat="43.364292582096084" lon="13.534982806720716"><ele>45.0</ele><time>2026-05-05T16:30:34Z</time></trkpt><trkpt lat="43.36420736497149" lon="13.534962521652655"><ele>45.0</ele><time>2026-05-05T16:30:37Z</time></trkpt><trkpt lat="43.364142818118715" lon="13.534940463839533"><ele>45.0</ele><time>2026-05-05T16:30:39Z</time></trkpt><trkpt lat="43.36405619524585" lon="13.534903096040322"><ele>45.0</ele><time>2026-05-05T16:30:42Z</time></trkpt><trkpt lat="43.363991469472" lon="13.534898826634418"><ele>45.0</ele><time>2026-05-05T16:30:44Z</time></trkpt><trkpt lat="43.36390743974142" lon="13.534865022312694"><ele>45.0</ele><time>2026-05-05T16:30:47Z</time></trkpt><trkpt lat="43.36382123581391" lon="13.534841235575742"><ele>45.0</ele><time>2026-05-05T16:30:50Z</time></trkpt><trkpt lat="43.36374126110865" lon="13.534811078226403"><ele>45.0</ele><time>2026-05-05T16:30:53Z</time></trkpt><trkpt lat="43.36365666950148" lon="13.534780802259725"><ele>45.0</ele><time>2026-05-05T16:30:56Z</time></trkpt><trkpt lat="43.363573523784055" lon="13.534749041521676"><ele>45.166666666666664</ele><time>2026-05-05T16:30:59Z</time></trkpt><trkpt lat="43.36349126334629" lon="13.53472894031422"><ele>45.333333333333336</ele><time>2026-05-05T16:31:02Z</time></trkpt><trkpt lat="43.36341239788457" lon="13.534704157733332"><ele>45.5</ele><time>2026-05-05T16:31:05Z</time></trkpt><trkpt lat="43.36333427999401" lon="13.534664904941856"><ele>45.66666666666667</ele><time>2026-05-05T16:31:08Z</time></trkpt><trkpt lat="43.36325496059545" lon="13.534658185388459"><ele>45.833333333333336</ele><time>2026-05-05T16:31:11Z</time></trkpt><trkpt lat="43.36317255298322" lon="13.53469100228052"><ele>46.0</ele><time>2026-05-05T16:31:14Z</time></trkpt><trkpt lat="43.36313406514747" lon="13.534767002956855"><ele>46.0</ele><time>2026-05-05T16:31:16Z</time></trkpt><trkpt lat="43.363082209265016" lon="13.534857041099816"><ele>46.0</ele><time>2026-05-05T16:31:19Z</time></trkpt><trkpt lat="43.36304954113038" lon="13.53496933150452"><ele>46.0</ele><time>2026-05-05T16:31:22Z</time></trkpt><trkpt lat="43.363016197154074" lon="13.535078228677488"><ele>46.0</ele><time>2026-05-05T16:31:25Z</time></trkpt><trkpt lat="43.36297768059396" lon="13.535182768393522"><ele>46.0</ele><time>2026-05-05T16:31:28Z</time></trkpt><trkpt lat="43.36294083286709" lon="13.535292139729831"><ele>46.0</ele><time>2026-05-05T16:31:31Z</time></trkpt><trkpt lat="43.362896514288074" lon="13.535400830437297"><ele>45.66666666666667</ele><time>2026-05-05T16:31:34Z</time></trkpt><trkpt lat="43.362857896209874" lon="13.53550811518179"><ele>45.333333333333336</ele><time>2026-05-05T16:31:37Z</time></trkpt><trkpt lat="43.36281371514881" lon="13.53560162799792"><ele>45.0</ele><time>2026-05-05T16:31:39.999Z</time></trkpt><trkpt lat="43.36276951628015" lon="13.535706675862855"><ele>44.666666666666664</ele><time>2026-05-05T16:31:42.999Z</time></trkpt><trkpt lat="43.3627324626136" lon="13.535790066186788"><ele>44.33333333333333</ele><time>2026-05-05T16:31:44.999Z</time></trkpt><trkpt lat="43.36270585950907" lon="13.535905224777014"><ele>44.0</ele><time>2026-05-05T16:31:47.999Z</time></trkpt><trkpt lat="43.36266654158515" lon="13.53600894396295"><ele>44.0</ele><time>2026-05-05T16:31:50.999Z</time></trkpt><trkpt lat="43.3626198282203" lon="13.536116869811796"><ele>44.0</ele><time>2026-05-05T16:31:53.999Z</time></trkpt><trkpt lat="43.362586457869426" lon="13.536213537566308"><ele>44.0</ele><time>2026-05-05T16:31:56.999Z</time></trkpt><trkpt lat="43.36255322428129" lon="13.536312754037377"><ele>44.0</ele><time>2026-05-05T16:31:59.999Z</time></trkpt><trkpt lat="43.362512790302084" lon="13.536417967706475"><ele>44.0</ele><time>2026-05-05T16:32:02.999Z</time></trkpt><trkpt lat="43.362479281958485" lon="13.536491864215071"><ele>44.0</ele><time>2026-05-05T16:32:04.999Z</time></trkpt><trkpt lat="43.36244495612244" lon="13.536603697838618"><ele>44.0</ele><time>2026-05-05T16:32:07.999Z</time></trkpt><trkpt lat="43.362402396193694" lon="13.536713355119293"><ele>44.0</ele><time>2026-05-05T16:32:10.999Z</time></trkpt><trkpt lat="43.362382592233786" lon="13.536828363714676"><ele>44.0</ele><time>2026-05-05T16:32:13.999Z</time></trkpt><trkpt lat="43.36233595318177" lon="13.536929935936994"><ele>44.0</ele><time>2026-05-05T16:32:16.999Z</time></trkpt><trkpt lat="43.36229938709469" lon="13.537018563252353"><ele>44.0</ele><time>2026-05-05T16:32:19.999Z</time></trkpt><trkpt lat="43.362261493854234" lon="13.537126627663413"><ele>44.0</ele><time>2026-05-05T16:32:22.999Z</time></trkpt><trkpt lat="43.36223892169988" lon="13.537245198378546"><ele>44.166666666666664</ele><time>2026-05-05T16:32:25.999Z</time></trkpt><trkpt lat="43.36221291216312" lon="13.537368549830866"><ele>44.33333333333333</ele><time>2026-05-05T16:32:29Z</time></trkpt><trkpt lat="43.36218983652305" lon="13.537475170903836"><ele>44.5</ele><time>2026-05-05T16:32:32Z</time></trkpt><trkpt lat="43.3621757745547" lon="13.537562522942116"><ele>44.666666666666664</ele><time>2026-05-05T16:32:34Z</time></trkpt><trkpt lat="43.362134044226224" lon="13.537664238363426"><ele>44.833333333333336</ele><time>2026-05-05T16:32:37Z</time></trkpt><trkpt lat="43.36209439233395" lon="13.537771328869415"><ele>45.0</ele><time>2026-05-05T16:32:40Z</time></trkpt><trkpt lat="43.36205217706739" lon="13.53788172349835"><ele>45.333333333333336</ele><time>2026-05-05T16:32:43Z</time></trkpt><trkpt lat="43.36203458196638" lon="13.537989199646308"><ele>45.666666666666664</ele><time>2026-05-05T16:32:46Z</time></trkpt><trkpt lat="43.36202777804847" lon="13.538110572553633"><ele>46.0</ele><time>2026-05-05T16:32:49Z</time></trkpt><trkpt lat="43.362041873165516" lon="13.538231928172653"><ele>46.33333333333333</ele><time>2026-05-05T16:32:52Z</time></trkpt><trkpt lat="43.36206184930306" lon="13.538344792164377"><ele>46.666666666666664</ele><time>2026-05-05T16:32:55Z</time></trkpt><trkpt lat="43.36208739177551" lon="13.538458636801616"><ele>47.0</ele><time>2026-05-05T16:32:58Z</time></trkpt><trkpt lat="43.36211596693228" lon="13.53856638545699"><ele>47.0</ele><time>2026-05-05T16:33:01Z</time></trkpt><trkpt lat="43.36213033867195" lon="13.53865378806649"><ele>47.0</ele><time>2026-05-05T16:33:03Z</time></trkpt><trkpt lat="43.362149974264646" lon="13.538773032703975"><ele>47.0</ele><time>2026-05-05T16:33:06Z</time></trkpt><trkpt lat="43.36216972276053" lon="13.538890375001156"><ele>47.0</ele><time>2026-05-05T16:33:09Z</time></trkpt><trkpt lat="43.36213538656102" lon="13.539005194645265"><ele>47.0</ele><time>2026-05-05T16:33:12Z</time></trkpt><trkpt lat="43.36206966007129" lon="13.539019933595135"><ele>47.0</ele><time>2026-05-05T16:33:14Z</time></trkpt><trkpt lat="43.3620023801965" lon="13.539032691148194"><ele>46.666666666666664</ele><time>2026-05-05T16:33:16Z</time></trkpt><trkpt lat="43.361918029254625" lon="13.539063289500675"><ele>46.33333333333333</ele><time>2026-05-05T16:33:19Z</time></trkpt><trkpt lat="43.36184605399286" lon="13.539068038066093"><ele>46.0</ele><time>2026-05-05T16:33:21Z</time></trkpt><trkpt lat="43.36177832035712" lon="13.539121350558124"><ele>45.666666666666664</ele><time>2026-05-05T16:33:24Z</time></trkpt><trkpt lat="43.36173042919555" lon="13.539229962703791"><ele>45.333333333333336</ele><time>2026-05-05T16:33:27Z</time></trkpt><trkpt lat="43.361723124279415" lon="13.539316875534697"><ele>45.0</ele><time>2026-05-05T16:33:29Z</time></trkpt><trkpt lat="43.361726491424605" lon="13.539439096190558"><ele>45.0</ele><time>2026-05-05T16:33:32Z</time></trkpt><trkpt lat="43.36173087171788" lon="13.539573340798405"><ele>45.0</ele><time>2026-05-05T16:33:35Z</time></trkpt><trkpt lat="43.361731788739576" lon="13.539660602532537"><ele>45.0</ele><time>2026-05-05T16:33:37Z</time></trkpt><trkpt lat="43.361722552234134" lon="13.539778408983263"><ele>45.0</ele><time>2026-05-05T16:33:39.999Z</time></trkpt><trkpt lat="43.36171264816059" lon="13.539896456686892"><ele>45.0</ele><time>2026-05-05T16:33:42.999Z</time></trkpt><trkpt lat="43.36170399280221" lon="13.53998229681706"><ele>45.0</ele><time>2026-05-05T16:33:44.999Z</time></trkpt><trkpt lat="43.36170327953237" lon="13.540106690745544"><ele>45.0</ele><time>2026-05-05T16:33:47.999Z</time></trkpt><trkpt lat="43.36169555022977" lon="13.540221998803009"><ele>45.0</ele><time>2026-05-05T16:33:50.999Z</time></trkpt><trkpt lat="43.361685163854936" lon="13.540342647927814"><ele>45.0</ele><time>2026-05-05T16:33:53.999Z</time></trkpt><trkpt lat="43.36167231172018" lon="13.540451517717202"><ele>45.0</ele><time>2026-05-05T16:33:56.999Z</time></trkpt><trkpt lat="43.361673783371444" lon="13.540580398306183"><ele>45.0</ele><time>2026-05-05T16:33:59.999Z</time></trkpt><trkpt lat="43.361656650275386" lon="13.540718051410698"><ele>45.0</ele><time>2026-05-05T16:34:02.999Z</time></trkpt><trkpt lat="43.36164237285631" lon="13.540837430040517"><ele>44.666666666666664</ele><time>2026-05-05T16:34:05.999Z</time></trkpt><trkpt lat="43.361627292663954" lon="13.540962437513166"><ele>44.333333333333336</ele><time>2026-05-05T16:34:08.999Z</time></trkpt><trkpt lat="43.361617365545996" lon="13.54109228102662"><ele>44.0</ele><time>2026-05-05T16:34:11.999Z</time></trkpt><trkpt lat="43.36162402597582" lon="13.541180770085596"><ele>43.66666666666667</ele><time>2026-05-05T16:34:13.999Z</time></trkpt><trkpt lat="43.361626982105435" lon="13.54130595099674"><ele>43.333333333333336</ele><time>2026-05-05T16:34:16.999Z</time></trkpt><trkpt lat="43.36160982034203" lon="13.541398216133398"><ele>43.0</ele><time>2026-05-05T16:34:18.999Z</time></trkpt><trkpt lat="43.361599907357764" lon="13.54149184500344"><ele>43.0</ele><time>2026-05-05T16:34:20.999Z</time></trkpt><trkpt lat="43.36157944897489" lon="13.541591164485595"><ele>43.0</ele><time>2026-05-05T16:34:22.999Z</time></trkpt><trkpt lat="43.36157740586475" lon="13.541725389888853"><ele>43.0</ele><time>2026-05-05T16:34:25.999Z</time></trkpt><trkpt lat="43.36157418803882" lon="13.541850817405951"><ele>43.0</ele><time>2026-05-05T16:34:28.999Z</time></trkpt><trkpt lat="43.3615735830952" lon="13.54194526874222"><ele>43.0</ele><time>2026-05-05T16:34:30.999Z</time></trkpt><trkpt lat="43.361562914492055" lon="13.542064321366574"><ele>43.0</ele><time>2026-05-05T16:34:34Z</time></trkpt><trkpt lat="43.36155495314998" lon="13.542152392617503"><ele>43.0</ele><time>2026-05-05T16:34:36Z</time></trkpt><trkpt lat="43.361557869438506" lon="13.542284116042046"><ele>43.0</ele><time>2026-05-05T16:34:39Z</time></trkpt><trkpt lat="43.36155107910789" lon="13.542412586855024"><ele>43.0</ele><time>2026-05-05T16:34:42Z</time></trkpt><trkpt lat="43.36156263129548" lon="13.542499523524194"><ele>43.0</ele><time>2026-05-05T16:34:44Z</time></trkpt><trkpt lat="43.3615492167771" lon="13.542598956565385"><ele>43.0</ele><time>2026-05-05T16:34:46Z</time></trkpt><trkpt lat="43.36153336558001" lon="13.54268342848872"><ele>43.0</ele><time>2026-05-05T16:34:48Z</time></trkpt><trkpt lat="43.36147063490606" lon="13.542718062661994"><ele>43.0</ele><time>2026-05-05T16:34:50Z</time></trkpt><trkpt lat="43.361385249680886" lon="13.542764072324491"><ele>43.0</ele><time>2026-05-05T16:34:53Z</time></trkpt><trkpt lat="43.36129941628542" lon="13.542812676926404"><ele>43.0</ele><time>2026-05-05T16:34:56Z</time></trkpt><trkpt lat="43.36122159443703" lon="13.542853707269527"><ele>43.0</ele><time>2026-05-05T16:34:59Z</time></trkpt><trkpt lat="43.361134790435564" lon="13.542913467590742"><ele>43.0</ele><time>2026-05-05T16:35:02Z</time></trkpt><trkpt lat="43.36105413968209" lon="13.542963168635296"><ele>43.0</ele><time>2026-05-05T16:35:05Z</time></trkpt><trkpt lat="43.360997058039864" lon="13.542999997929332"><ele>43.0</ele><time>2026-05-05T16:35:07Z</time></trkpt><trkpt lat="43.360915921248846" lon="13.543048375021927"><ele>43.0</ele><time>2026-05-05T16:35:10Z</time></trkpt><trkpt lat="43.360843138523286" lon="13.543107823768946"><ele>43.0</ele><time>2026-05-05T16:35:13Z</time></trkpt><trkpt lat="43.3607605073263" lon="13.543156320322248"><ele>43.0</ele><time>2026-05-05T16:35:16Z</time></trkpt><trkpt lat="43.3606845094303" lon="13.543207912815543"><ele>43.0</ele><time>2026-05-05T16:35:19Z</time></trkpt><trkpt lat="43.36062045498803" lon="13.543281836693854"><ele>43.0</ele><time>2026-05-05T16:35:21Z</time></trkpt><trkpt lat="43.36055286301201" lon="13.543323308807727"><ele>43.0</ele><time>2026-05-05T16:35:24Z</time></trkpt><trkpt lat="43.36047269996983" lon="13.543367122890967"><ele>43.0</ele><time>2026-05-05T16:35:27Z</time></trkpt><trkpt lat="43.36040055928078" lon="13.543416327212793"><ele>43.0</ele><time>2026-05-05T16:35:30Z</time></trkpt><trkpt lat="43.360318356017" lon="13.543453221437051"><ele>43.0</ele><time>2026-05-05T16:35:33Z</time></trkpt><trkpt lat="43.360244344994406" lon="13.543518444117657"><ele>43.0</ele><time>2026-05-05T16:35:36Z</time></trkpt><trkpt lat="43.36016778328932" lon="13.543570664011709"><ele>43.333333333333336</ele><time>2026-05-05T16:35:39Z</time></trkpt><trkpt lat="43.36009746695363" lon="13.543637046625133"><ele>43.66666666666667</ele><time>2026-05-05T16:35:42Z</time></trkpt><trkpt lat="43.36005563752888" lon="13.543750495176011"><ele>44.0</ele><time>2026-05-05T16:35:45Z</time></trkpt><trkpt lat="43.36007159703885" lon="13.543850767531719"><ele>44.333333333333336</ele><time>2026-05-05T16:35:47.999Z</time></trkpt><trkpt lat="43.360121434378186" lon="13.543942660957144"><ele>44.666666666666664</ele><time>2026-05-05T16:35:50.999Z</time></trkpt><trkpt lat="43.36016120656276" lon="13.544029650942873"><ele>45.0</ele><time>2026-05-05T16:35:53.999Z</time></trkpt><trkpt lat="43.3602020892855" lon="13.544125764507154"><ele>45.166666666666664</ele><time>2026-05-05T16:35:56.999Z</time></trkpt><trkpt lat="43.3602263942622" lon="13.544207797925559"><ele>45.333333333333336</ele><time>2026-05-05T16:35:58.999Z</time></trkpt><trkpt lat="43.36017691086384" lon="13.544299926333457"><ele>45.5</ele><time>2026-05-05T16:36:01.999Z</time></trkpt><trkpt lat="43.360109073843205" lon="13.544332190721887"><ele>45.66666666666667</ele><time>2026-05-05T16:36:03.999Z</time></trkpt><trkpt lat="43.3600250747168" lon="13.544347766005547"><ele>45.833333333333336</ele><time>2026-05-05T16:36:06.999Z</time></trkpt><trkpt lat="43.359950105985675" lon="13.544376596987117"><ele>46.0</ele><time>2026-05-05T16:36:09.999Z</time></trkpt><trkpt lat="43.359871784354645" lon="13.544418512943453"><ele>46.0</ele><time>2026-05-05T16:36:12.999Z</time></trkpt><trkpt lat="43.359798667084625" lon="13.544474451140466"><ele>46.0</ele><time>2026-05-05T16:36:15.999Z</time></trkpt><trkpt lat="43.35973057380934" lon="13.544529811387893"><ele>46.0</ele><time>2026-05-05T16:36:18.999Z</time></trkpt><trkpt lat="43.35967446808376" lon="13.544577455908916"><ele>46.0</ele><time>2026-05-05T16:36:20.999Z</time></trkpt><trkpt lat="43.35960279742318" lon="13.544637405778502"><ele>46.0</ele><time>2026-05-05T16:36:23.999Z</time></trkpt><trkpt lat="43.359532131560954" lon="13.544698737497233"><ele>46.0</ele><time>2026-05-05T16:36:26.999Z</time></trkpt><trkpt lat="43.35946542770711" lon="13.544769586046192"><ele>45.5</ele><time>2026-05-05T16:36:29.999Z</time></trkpt><trkpt lat="43.35940864007988" lon="13.544850978388018"><ele>45.0</ele><time>2026-05-05T16:36:32.999Z</time></trkpt><trkpt lat="43.35934308672916" lon="13.544940530425562"><ele>44.5</ele><time>2026-05-05T16:36:35.999Z</time></trkpt><trkpt lat="43.35932174817414" lon="13.545027140084308"><ele>44.0</ele><time>2026-05-05T16:36:37.999Z</time></trkpt><trkpt lat="43.35929747880513" lon="13.545134998635898"><ele>43.5</ele><time>2026-05-05T16:36:41Z</time></trkpt><trkpt lat="43.35926651168135" lon="13.545232087847694"><ele>43.0</ele><time>2026-05-05T16:36:44Z</time></trkpt><trkpt lat="43.359224184859826" lon="13.545342697992837"><ele>43.0</ele><time>2026-05-05T16:36:47Z</time></trkpt><trkpt lat="43.35919489796416" lon="13.545455303002852"><ele>43.0</ele><time>2026-05-05T16:36:50Z</time></trkpt><trkpt lat="43.35915736076668" lon="13.545557715898452"><ele>43.0</ele><time>2026-05-05T16:36:53Z</time></trkpt><trkpt lat="43.35910483004803" lon="13.54564455910819"><ele>43.0</ele><time>2026-05-05T16:36:56Z</time></trkpt><trkpt lat="43.35908740403701" lon="13.54573744881458"><ele>43.0</ele><time>2026-05-05T16:36:58Z</time></trkpt><trkpt lat="43.359069703145856" lon="13.545823096295859"><ele>43.0</ele><time>2026-05-05T16:37:00Z</time></trkpt><trkpt lat="43.359034564786135" lon="13.545924347079403"><ele>43.0</ele><time>2026-05-05T16:37:03Z</time></trkpt><trkpt lat="43.35900638970324" lon="13.546039484022035"><ele>43.0</ele><time>2026-05-05T16:37:06Z</time></trkpt><trkpt lat="43.35897942432036" lon="13.546153973594635"><ele>43.0</ele><time>2026-05-05T16:37:09Z</time></trkpt><trkpt lat="43.358943628284734" lon="13.546232321922732"><ele>43.0</ele><time>2026-05-05T16:37:11Z</time></trkpt><trkpt lat="43.35891354088055" lon="13.546341608979994"><ele>43.0</ele><time>2026-05-05T16:37:14Z</time></trkpt><trkpt lat="43.35888794450921" lon="13.546425602737468"><ele>43.0</ele><time>2026-05-05T16:37:16Z</time></trkpt><trkpt lat="43.35886226749166" lon="13.546544854035096"><ele>43.0</ele><time>2026-05-05T16:37:19Z</time></trkpt><trkpt lat="43.358835481029374" lon="13.546665633753301"><ele>43.0</ele><time>2026-05-05T16:37:22Z</time></trkpt><trkpt lat="43.35880449656798" lon="13.546792264037885"><ele>43.0</ele><time>2026-05-05T16:37:25Z</time></trkpt><trkpt lat="43.358757748328074" lon="13.54689510702033"><ele>43.0</ele><time>2026-05-05T16:37:28Z</time></trkpt><trkpt lat="43.3586754510624" lon="13.546981166349434"><ele>43.0</ele><time>2026-05-05T16:37:31Z</time></trkpt><trkpt lat="43.35858665206762" lon="13.547006191370425"><ele>43.0</ele><time>2026-05-05T16:37:34Z</time></trkpt><trkpt lat="43.358501408601285" lon="13.547028186964305"><ele>43.0</ele><time>2026-05-05T16:37:37Z</time></trkpt><trkpt lat="43.35843793123134" lon="13.547046901086212"><ele>43.0</ele><time>2026-05-05T16:37:39Z</time></trkpt><trkpt lat="43.358343259789386" lon="13.547060903064098"><ele>43.0</ele><time>2026-05-05T16:37:41.999Z</time></trkpt><trkpt lat="43.35824804664862" lon="13.54707001543638"><ele>43.0</ele><time>2026-05-05T16:37:44.999Z</time></trkpt><trkpt lat="43.35815549034721" lon="13.547091464016622"><ele>43.0</ele><time>2026-05-05T16:37:47.999Z</time></trkpt><trkpt lat="43.35806217600311" lon="13.547106357564353"><ele>43.0</ele><time>2026-05-05T16:37:50.999Z</time></trkpt><trkpt lat="43.35797582965133" lon="13.54713217065234"><ele>43.0</ele><time>2026-05-05T16:37:53.999Z</time></trkpt><trkpt lat="43.35791025963241" lon="13.547149811823449"><ele>43.0</ele><time>2026-05-05T16:37:55.999Z</time></trkpt><trkpt lat="43.35781878689056" lon="13.547163078242733"><ele>43.0</ele><time>2026-05-05T16:37:58.999Z</time></trkpt><trkpt lat="43.35773005170043" lon="13.547174860713914"><ele>43.0</ele><time>2026-05-05T16:38:01.999Z</time></trkpt><trkpt lat="43.35764431772541" lon="13.547208946486068"><ele>43.0</ele><time>2026-05-05T16:38:04.999Z</time></trkpt><trkpt lat="43.35755254426822" lon="13.54722415397236"><ele>43.0</ele><time>2026-05-05T16:38:07.999Z</time></trkpt><trkpt lat="43.357487437640465" lon="13.547239532607794"><ele>43.0</ele><time>2026-05-05T16:38:09.999Z</time></trkpt><trkpt lat="43.357403387534" lon="13.547259974178466"><ele>43.0</ele><time>2026-05-05T16:38:12.999Z</time></trkpt><trkpt lat="43.35731717616397" lon="13.547295568325143"><ele>43.0</ele><time>2026-05-05T16:38:15.999Z</time></trkpt><trkpt lat="43.35725114403531" lon="13.547301308079767"><ele>43.0</ele><time>2026-05-05T16:38:17.999Z</time></trkpt><trkpt lat="43.35718692884848" lon="13.54730968012599"><ele>43.0</ele><time>2026-05-05T16:38:19.999Z</time></trkpt><trkpt lat="43.35709356572172" lon="13.547357679089009"><ele>43.0</ele><time>2026-05-05T16:38:22.999Z</time></trkpt><trkpt lat="43.35701341689895" lon="13.547383511928777"><ele>43.0</ele><time>2026-05-05T16:38:25.999Z</time></trkpt><trkpt lat="43.356970188276044" lon="13.547451148291321"><ele>43.0</ele><time>2026-05-05T16:38:27.999Z</time></trkpt><trkpt lat="43.35689952402445" lon="13.547522451390641"><ele>43.0</ele><time>2026-05-05T16:38:30.999Z</time></trkpt><trkpt lat="43.35685658925016" lon="13.54762208278466"><ele>43.0</ele><time>2026-05-05T16:38:33.999Z</time></trkpt><trkpt lat="43.356868963523134" lon="13.54772615227135"><ele>43.0</ele><time>2026-05-05T16:38:35.999Z</time></trkpt><trkpt lat="43.35690977688072" lon="13.547821594718604"><ele>43.0</ele><time>2026-05-05T16:38:38.999Z</time></trkpt><trkpt lat="43.3569694761112" lon="13.547912067643963"><ele>43.0</ele><time>2026-05-05T16:38:41.999Z</time></trkpt><trkpt lat="43.35703372934272" lon="13.547987271027894"><ele>43.0</ele><time>2026-05-05T16:38:44.999Z</time></trkpt><trkpt lat="43.35707600732035" lon="13.54805596202616"><ele>43.0</ele><time>2026-05-05T16:38:47Z</time></trkpt><trkpt lat="43.357137634607845" lon="13.548124098882049"><ele>43.0</ele><time>2026-05-05T16:38:50Z</time></trkpt><trkpt lat="43.35718514439874" lon="13.548242103901092"><ele>43.0</ele><time>2026-05-05T16:38:53Z</time></trkpt><trkpt lat="43.357250286296185" lon="13.548319673137653"><ele>43.0</ele><time>2026-05-05T16:38:56Z</time></trkpt><trkpt lat="43.35730375924454" lon="13.548405453932352"><ele>43.0</ele><time>2026-05-05T16:38:59Z</time></trkpt><trkpt lat="43.35734253703587" lon="13.548474117810224"><ele>43.0</ele><time>2026-05-05T16:39:01Z</time></trkpt><trkpt lat="43.35740480523637" lon="13.54856013211009"><ele>43.0</ele><time>2026-05-05T16:39:04Z</time></trkpt><trkpt lat="43.35744968062881" lon="13.548627108844903"><ele>43.0</ele><time>2026-05-05T16:39:06Z</time></trkpt><trkpt lat="43.35749810186012" lon="13.548685871066082"><ele>43.0</ele><time>2026-05-05T16:39:08Z</time></trkpt><trkpt lat="43.357557854821486" lon="13.54877663605564"><ele>42.8</ele><time>2026-05-05T16:39:11Z</time></trkpt><trkpt lat="43.357616375391636" lon="13.548878699031329"><ele>42.599999999999994</ele><time>2026-05-05T16:39:14Z</time></trkpt><trkpt lat="43.35767799293883" lon="13.548970821408462"><ele>42.400000000000006</ele><time>2026-05-05T16:39:17Z</time></trkpt><trkpt lat="43.35772838096416" lon="13.549080022357172"><ele>42.2</ele><time>2026-05-05T16:39:20Z</time></trkpt><trkpt lat="43.357798837149545" lon="13.549166245824077"><ele>42.0</ele><time>2026-05-05T16:39:23Z</time></trkpt><trkpt lat="43.35785892741076" lon="13.549254570158983"><ele>42.0</ele><time>2026-05-05T16:39:26Z</time></trkpt><trkpt lat="43.35792791266482" lon="13.549346875773045"><ele>42.0</ele><time>2026-05-05T16:39:29Z</time></trkpt><trkpt lat="43.35798485774922" lon="13.549439185889334"><ele>42.0</ele><time>2026-05-05T16:39:32Z</time></trkpt><trkpt lat="43.358047604276905" lon="13.549531223813732"><ele>42.0</ele><time>2026-05-05T16:39:35Z</time></trkpt><trkpt lat="43.358092350072845" lon="13.549601329890946"><ele>42.0</ele><time>2026-05-05T16:39:37Z</time></trkpt><trkpt lat="43.35814857714802" lon="13.54970187942466"><ele>42.0</ele><time>2026-05-05T16:39:40Z</time></trkpt><trkpt lat="43.358205236867676" lon="13.549791712667028"><ele>42.0</ele><time>2026-05-05T16:39:43Z</time></trkpt><trkpt lat="43.358241078264186" lon="13.54986501343418"><ele>42.0</ele><time>2026-05-05T16:39:45Z</time></trkpt><trkpt lat="43.35828209816707" lon="13.549931213943795"><ele>42.0</ele><time>2026-05-05T16:39:47Z</time></trkpt><trkpt lat="43.35834925588161" lon="13.550010545840337"><ele>42.0</ele><time>2026-05-05T16:39:50Z</time></trkpt><trkpt lat="43.358408987399855" lon="13.55009255593113"><ele>42.0</ele><time>2026-05-05T16:39:53Z</time></trkpt><trkpt lat="43.3584493034873" lon="13.550161228713636"><ele>42.0</ele><time>2026-05-05T16:39:54.999Z</time></trkpt><trkpt lat="43.3585043341731" lon="13.550255292066536"><ele>42.0</ele><time>2026-05-05T16:39:57.999Z</time></trkpt><trkpt lat="43.35855959364161" lon="13.550357503042775"><ele>42.0</ele><time>2026-05-05T16:40:00.999Z</time></trkpt><trkpt lat="43.35861854928555" lon="13.550441205974789"><ele>42.0</ele><time>2026-05-05T16:40:03.999Z</time></trkpt><trkpt lat="43.3586824584564" lon="13.550521711595502"><ele>42.0</ele><time>2026-05-05T16:40:06.999Z</time></trkpt><trkpt lat="43.358731286385606" lon="13.55062214735219"><ele>42.0</ele><time>2026-05-05T16:40:09.999Z</time></trkpt><trkpt lat="43.358789654583525" lon="13.550718096507733"><ele>42.0</ele><time>2026-05-05T16:40:12.999Z</time></trkpt><trkpt lat="43.35884148457969" lon="13.55081019684004"><ele>42.0</ele><time>2026-05-05T16:40:15.999Z</time></trkpt><trkpt lat="43.35889998622374" lon="13.550898309106612"><ele>42.0</ele><time>2026-05-05T16:40:18.999Z</time></trkpt><trkpt lat="43.3589590316633" lon="13.550975634160388"><ele>42.0</ele><time>2026-05-05T16:40:21.999Z</time></trkpt><trkpt lat="43.359002624598794" lon="13.551071356056893"><ele>42.0</ele><time>2026-05-05T16:40:24.999Z</time></trkpt><trkpt lat="43.359060534849505" lon="13.551164797336531"><ele>42.0</ele><time>2026-05-05T16:40:27.999Z</time></trkpt><trkpt lat="43.359112676322006" lon="13.55121656363527"><ele>42.0</ele><time>2026-05-05T16:40:29.999Z</time></trkpt><trkpt lat="43.35916176968082" lon="13.551306801947788"><ele>42.0</ele><time>2026-05-05T16:40:32.999Z</time></trkpt><trkpt lat="43.35921038995659" lon="13.551364802350031"><ele>42.0</ele><time>2026-05-05T16:40:34.999Z</time></trkpt><trkpt lat="43.359268636804295" lon="13.551453585413826"><ele>42.0</ele><time>2026-05-05T16:40:37.999Z</time></trkpt><trkpt lat="43.35933281078709" lon="13.551529956186158"><ele>42.0</ele><time>2026-05-05T16:40:40.999Z</time></trkpt><trkpt lat="43.35942438686098" lon="13.551528721230179"><ele>42.0</ele><time>2026-05-05T16:40:43.999Z</time></trkpt><trkpt lat="43.35948887191785" lon="13.55152086699978"><ele>42.0</ele><time>2026-05-05T16:40:45.999Z</time></trkpt><trkpt lat="43.35955171041968" lon="13.551507533428827"><ele>42.0</ele><time>2026-05-05T16:40:47.999Z</time></trkpt><trkpt lat="43.359615193122885" lon="13.551511357887058"><ele>42.0</ele><time>2026-05-05T16:40:49.999Z</time></trkpt><trkpt lat="43.359678675317916" lon="13.551509147816086"><ele>42.0</ele><time>2026-05-05T16:40:52Z</time></trkpt><trkpt lat="43.35975164970078" lon="13.551472784291601"><ele>42.0</ele><time>2026-05-05T16:40:55Z</time></trkpt><trkpt lat="43.3598140593121" lon="13.551447570196913"><ele>42.0</ele><time>2026-05-05T16:40:57Z</time></trkpt><trkpt lat="43.35987549877722" lon="13.551423309127646"><ele>42.0</ele><time>2026-05-05T16:40:59Z</time></trkpt><trkpt lat="43.35996080479869" lon="13.551392128080106"><ele>42.0</ele><time>2026-05-05T16:41:02Z</time></trkpt><trkpt lat="43.360032563081084" lon="13.551360406876237"><ele>42.166666666666664</ele><time>2026-05-05T16:41:05Z</time></trkpt><trkpt lat="43.36009671385265" lon="13.551311497270715"><ele>42.333333333333336</ele><time>2026-05-05T16:41:07Z</time></trkpt><trkpt lat="43.36015621650888" lon="13.551276131023236"><ele>42.5</ele><time>2026-05-05T16:41:09Z</time></trkpt><trkpt lat="43.3602200663419" lon="13.551244921109014"><ele>42.66666666666667</ele><time>2026-05-05T16:41:11Z</time></trkpt><trkpt lat="43.360294012926744" lon="13.551188778774478"><ele>42.833333333333336</ele><time>2026-05-05T16:41:14Z</time></trkpt><trkpt lat="43.36037918790505" lon="13.551158360769907"><ele>43.0</ele><time>2026-05-05T16:41:17Z</time></trkpt><trkpt lat="43.36045433709983" lon="13.551092064855391"><ele>43.16666666666667</ele><time>2026-05-05T16:41:20Z</time></trkpt><trkpt lat="43.3605272664612" lon="13.551020090699232"><ele>43.333333333333336</ele><time>2026-05-05T16:41:23Z</time></trkpt><trkpt lat="43.36059652366249" lon="13.550944304162122"><ele>43.5</ele><time>2026-05-05T16:41:26Z</time></trkpt><trkpt lat="43.36066699631139" lon="13.550867307712904"><ele>43.666666666666664</ele><time>2026-05-05T16:41:29Z</time></trkpt><trkpt lat="43.36074121917069" lon="13.550791560015655"><ele>43.83333333333333</ele><time>2026-05-05T16:41:32Z</time></trkpt><trkpt lat="43.36080728854668" lon="13.550710456691334"><ele>44.0</ele><time>2026-05-05T16:41:35Z</time></trkpt><trkpt lat="43.36086752408678" lon="13.550663863266795"><ele>43.800000000000004</ele><time>2026-05-05T16:41:37Z</time></trkpt><trkpt lat="43.360941249686526" lon="13.55059267508078"><ele>43.6</ele><time>2026-05-05T16:41:40Z</time></trkpt><trkpt lat="43.36101454452269" lon="13.550512892022937"><ele>43.4</ele><time>2026-05-05T16:41:43Z</time></trkpt><trkpt lat="43.361077719969046" lon="13.550425492849596"><ele>43.2</ele><time>2026-05-05T16:41:46Z</time></trkpt><trkpt lat="43.36114277470792" lon="13.550339665607861"><ele>43.0</ele><time>2026-05-05T16:41:49Z</time></trkpt><trkpt lat="43.36120488719365" lon="13.55025383426198"><ele>43.0</ele><time>2026-05-05T16:41:52Z</time></trkpt><trkpt lat="43.3612768096529" lon="13.550183697699033"><ele>43.0</ele><time>2026-05-05T16:41:55Z</time></trkpt><trkpt lat="43.36132649326124" lon="13.55012526199709"><ele>43.0</ele><time>2026-05-05T16:41:57Z</time></trkpt><trkpt lat="43.36139208681468" lon="13.550042135211386"><ele>43.0</ele><time>2026-05-05T16:42:00Z</time></trkpt><trkpt lat="43.361457500012705" lon="13.549969227014712"><ele>43.0</ele><time>2026-05-05T16:42:03Z</time></trkpt><trkpt lat="43.36151415965306" lon="13.549868234649756"><ele>43.0</ele><time>2026-05-05T16:42:05.999Z</time></trkpt><trkpt lat="43.36149240719381" lon="13.549745408465284"><ele>43.0</ele><time>2026-05-05T16:42:08.999Z</time></trkpt><trkpt lat="43.36147095860989" lon="13.5496610312869"><ele>43.0</ele><time>2026-05-05T16:42:10.999Z</time></trkpt><trkpt lat="43.361439436061936" lon="13.549542185216756"><ele>43.0</ele><time>2026-05-05T16:42:13.999Z</time></trkpt><trkpt lat="43.3614035308335" lon="13.549423965735398"><ele>43.0</ele><time>2026-05-05T16:42:16.999Z</time></trkpt><trkpt lat="43.36137570954906" lon="13.549318243506358"><ele>43.0</ele><time>2026-05-05T16:42:19.999Z</time></trkpt><trkpt lat="43.361388502111964" lon="13.549231307258284"><ele>43.0</ele><time>2026-05-05T16:42:21.999Z</time></trkpt><trkpt lat="43.36140590682241" lon="13.549106508698944"><ele>43.00000000000001</ele><time>2026-05-05T16:42:24.999Z</time></trkpt><trkpt lat="43.36141793980787" lon="13.549018956896626"><ele>43.0</ele><time>2026-05-05T16:42:26.999Z</time></trkpt><trkpt lat="43.361428898630564" lon="13.548932901658521"><ele>43.0</ele><time>2026-05-05T16:42:28.999Z</time></trkpt><trkpt lat="43.36143696460466" lon="13.548839392227887"><ele>43.0</ele><time>2026-05-05T16:42:30.999Z</time></trkpt><trkpt lat="43.36145785732606" lon="13.548731566645303"><ele>43.0</ele><time>2026-05-05T16:42:33.999Z</time></trkpt><trkpt lat="43.36147399453741" lon="13.548632262820039"><ele>43.00000000000001</ele><time>2026-05-05T16:42:35.999Z</time></trkpt><trkpt lat="43.3614871271013" lon="13.548503548214649"><ele>43.0</ele><time>2026-05-05T16:42:38.999Z</time></trkpt><trkpt lat="43.36150620617759" lon="13.548387993816158"><ele>43.16666666666667</ele><time>2026-05-05T16:42:41.999Z</time></trkpt><trkpt lat="43.361531074772806" lon="13.54826809871344"><ele>43.333333333333336</ele><time>2026-05-05T16:42:44.999Z</time></trkpt><trkpt lat="43.36155846182095" lon="13.548146495052894"><ele>43.5</ele><time>2026-05-05T16:42:47.999Z</time></trkpt><trkpt lat="43.361583981519345" lon="13.548046419870412"><ele>43.666666666666664</ele><time>2026-05-05T16:42:50.999Z</time></trkpt><trkpt lat="43.36162623829568" lon="13.547980142397263"><ele>43.83333333333333</ele><time>2026-05-05T16:42:52.999Z</time></trkpt><trkpt lat="43.361688218378674" lon="13.547920298347467"><ele>44.0</ele><time>2026-05-05T16:42:54.999Z</time></trkpt><trkpt lat="43.36176605554436" lon="13.547862847204179"><ele>43.83333333333333</ele><time>2026-05-05T16:42:58Z</time></trkpt><trkpt lat="43.3618514546685" lon="13.547811965606893"><ele>43.666666666666664</ele><time>2026-05-05T16:43:01Z</time></trkpt><trkpt lat="43.361916033799574" lon="13.54780614329697"><ele>43.5</ele><time>2026-05-05T16:43:03Z</time></trkpt><trkpt lat="43.362004914528285" lon="13.547790986376189"><ele>43.333333333333336</ele><time>2026-05-05T16:43:06Z</time></trkpt><trkpt lat="43.36209988593416" lon="13.54779904086894"><ele>43.16666666666667</ele><time>2026-05-05T16:43:09Z</time></trkpt><trkpt lat="43.362193256213494" lon="13.54780255232788"><ele>43.0</ele><time>2026-05-05T16:43:12Z</time></trkpt><trkpt lat="43.362282522269666" lon="13.547804398856092"><ele>43.00000000000001</ele><time>2026-05-05T16:43:15Z</time></trkpt><trkpt lat="43.362346116632764" lon="13.547810051277677"><ele>43.0</ele><time>2026-05-05T16:43:17Z</time></trkpt><trkpt lat="43.362409619617594" lon="13.547805183516035"><ele>43.0</ele><time>2026-05-05T16:43:19Z</time></trkpt><trkpt lat="43.36247367389508" lon="13.547804432960124"><ele>43.0</ele><time>2026-05-05T16:43:21Z</time></trkpt><trkpt lat="43.362557607768174" lon="13.547806129171425"><ele>43.0</ele><time>2026-05-05T16:43:24Z</time></trkpt><trkpt lat="43.362624550771535" lon="13.547810374505941"><ele>43.00000000000001</ele><time>2026-05-05T16:43:26Z</time></trkpt><trkpt lat="43.3626832302176" lon="13.547849674152264"><ele>43.0</ele><time>2026-05-05T16:43:28Z</time></trkpt><trkpt lat="43.36274793648082" lon="13.547862720629645"><ele>43.00000000000001</ele><time>2026-05-05T16:43:30Z</time></trkpt><trkpt lat="43.36281442846649" lon="13.547876319210944"><ele>43.0</ele><time>2026-05-05T16:43:32Z</time></trkpt><trkpt lat="43.36287915936839" lon="13.54789088329769"><ele>43.0</ele><time>2026-05-05T16:43:34Z</time></trkpt><trkpt lat="43.36294837460612" lon="13.547912108906537"><ele>43.0</ele><time>2026-05-05T16:43:36Z</time></trkpt><trkpt lat="43.36303051966818" lon="13.547921036053886"><ele>43.0</ele><time>2026-05-05T16:43:39Z</time></trkpt><trkpt lat="43.36310966383486" lon="13.547940723689967"><ele>43.00000000000001</ele><time>2026-05-05T16:43:42Z</time></trkpt><trkpt lat="43.36318492025379" lon="13.547960461965785"><ele>43.0</ele><time>2026-05-05T16:43:45Z</time></trkpt><trkpt lat="43.36326115250919" lon="13.547972413803144"><ele>42.833333333333336</ele><time>2026-05-05T16:43:48Z</time></trkpt><trkpt lat="43.363350060854636" lon="13.547960583173985"><ele>42.66666666666667</ele><time>2026-05-05T16:43:51Z</time></trkpt><trkpt lat="43.36341561213006" lon="13.548051450091526"><ele>42.5</ele><time>2026-05-05T16:43:54Z</time></trkpt><trkpt lat="43.36345264457164" lon="13.548155834721472"><ele>42.333333333333336</ele><time>2026-05-05T16:43:56Z</time></trkpt><trkpt lat="43.363456475294576" lon="13.54825569528615"><ele>42.166666666666664</ele><time>2026-05-05T16:43:58Z</time></trkpt><trkpt lat="43.363441583777394" lon="13.548360212145797"><ele>42.0</ele><time>2026-05-05T16:44:00Z</time></trkpt><trkpt lat="43.36344502707381" lon="13.54849695853494"><ele>42.0</ele><time>2026-05-05T16:44:03Z</time></trkpt><trkpt lat="43.363410278893106" lon="13.548584482377906"><ele>42.0</ele><time>2026-05-05T16:44:04.999Z</time></trkpt><trkpt lat="43.363401521918206" lon="13.548677924915978"><ele>42.0</ele><time>2026-05-05T16:44:06.999Z</time></trkpt><trkpt lat="43.36339283808809" lon="13.548770758752001"><ele>42.0</ele><time>2026-05-05T16:44:08.999Z</time></trkpt><trkpt lat="43.36337383689064" lon="13.548864274390606"><ele>42.0</ele><time>2026-05-05T16:44:10.999Z</time></trkpt><trkpt lat="43.363336556696275" lon="13.54898585944764"><ele>42.0</ele><time>2026-05-05T16:44:13.999Z</time></trkpt><trkpt lat="43.363315590172164" lon="13.549073371643475"><ele>42.0</ele><time>2026-05-05T16:44:15.999Z</time></trkpt><trkpt lat="43.36327667642826" lon="13.549180577861407"><ele>41.0</ele><time>2026-05-05T16:44:18.999Z</time></trkpt><trkpt lat="43.36326485508269" lon="13.549299603191166"><ele>41.0</ele><time>2026-05-05T16:44:21.999Z</time></trkpt><trkpt lat="43.363326346446534" lon="13.549342034621345"><ele>41.0</ele><time>2026-05-05T16:44:30.999Z</time></trkpt><trkpt lat="43.36339757000997" lon="13.549342906274646"><ele>41.0</ele><time>2026-05-05T16:44:37.999Z</time></trkpt></trkseg></trk></gpx>